Time,TemperatureF,DewpointF,PressureIn,WindDirection,WindDirectionDegrees,WindSpeedMPH,WindSpeedGustMPH,Humidity,HourlyPrecipIn,Conditions,Clouds,dailyrainin,SoftwareType,DateUTC
2013-03-13 00:00:00,58.1,54.6,30.04,NW,324,0.0,1.0,88,0.00,,,0.19,Wunderground v.1.15,2013-03-13 04:00:00,
2013-03-13 00:05:00,58.1,54.6,30.04,West,277,2.0,4.0,88,0.00,,,0.19,Wunderground v.1.15,2013-03-13 04:05:00,
2013-03-13 00:07:00,58.1,54.6,30.04,NW,316,3.0,4.0,88,0.00,,,0.19,Wunderground v.1.15,2013-03-13 04:07:00,
2013-03-13 00:10:00,58.1,54.6,30.04,NW,321,1.0,1.0,88,0.00,,,0.19,Wunderground v.1.15,2013-03-13 04:10:00,
2013-03-13 00:11:00,58.1,54.6,30.04,NW,321,0.0,1.0,88,0.00,,,0.19,Wunderground v.1.15,2013-03-13 04:11:00,
2013-03-13 00:13:00,58.1,54.6,30.04,NNW,335,1.0,6.0,88,0.00,,,0.19,Wunderground v.1.15,2013-03-13 04:13:00,
2013-03-13 00:15:00,58.1,54.6,30.04,North,5,0.0,6.0,88,0.00,,,0.19,Wunderground v.1.15,2013-03-13 04:15:00,
2013-03-13 00:16:00,58.1,54.6,30.04,North,5,0.0,6.0,88,0.00,,,0.19,Wunderground v.1.15,2013-03-13 04:16:00,
2013-03-13 00:18:00,58.0,54.5,30.04,NNW,331,0.0,6.0,88,0.00,,,0.19,Wunderground v.1.15,2013-03-13 04:18:00,
2013-03-13 00:21:00,58.0,54.8,30.04,NNW,342,0.0,1.0,89,0.00,,,0.19,Wunderground v.1.15,2013-03-13 04:21:00,
2013-03-13 00:22:00,58.0,54.8,30.04,NNW,342,0.0,1.0,89,0.00,,,0.19,Wunderground v.1.15,2013-03-13 04:22:00,
2013-03-13 00:23:00,58.0,54.8,30.04,NW,322,0.0,5.0,89,0.00,,,0.19,Wunderground v.1.15,2013-03-13 04:23:00,
2013-03-13 00:26:00,58.0,54.8,30.04,NNW,346,1.0,5.0,89,0.00,,,0.19,Wunderground v.1.15,2013-03-13 04:26:00,
2013-03-13 00:27:00,58.0,54.8,30.04,NNW,346,0.0,5.0,89,0.00,,,0.19,Wunderground v.1.15,2013-03-13 04:27:00,
2013-03-13 00:29:00,57.8,54.6,30.04,NNE,15,1.0,5.0,89,0.00,,,0.19,Wunderground v.1.15,2013-03-13 04:29:00,
2013-03-13 00:31:00,57.8,54.6,30.04,West,275,0.0,3.0,89,0.00,,,0.19,Wunderground v.1.15,2013-03-13 04:31:00,
2013-03-13 00:32:00,57.8,54.6,30.04,West,275,0.0,3.0,89,0.00,,,0.19,Wunderground v.1.15,2013-03-13 04:32:00,
2013-03-13 00:34:00,57.6,54.4,30.04,WNW,301,0.0,5.0,89,0.00,,,0.19,Wunderground v.1.15,2013-03-13 04:34:00,
2013-03-13 00:37:00,57.6,54.4,30.04,West,265,0.0,5.0,89,0.00,,,0.19,Wunderground v.1.15,2013-03-13 04:37:00,
2013-03-13 00:40:00,57.6,54.4,30.04,NNW,327,0.0,1.0,89,0.00,,,0.19,Wunderground v.1.15,2013-03-13 04:40:00,
2013-03-13 00:42:00,57.6,54.4,30.04,NNW,329,2.0,2.0,89,0.00,,,0.19,Wunderground v.1.15,2013-03-13 04:42:00,
2013-03-13 00:43:00,57.5,54.3,30.04,West,267,0.0,2.0,89,0.00,,,0.19,Wunderground v.1.15,2013-03-13 04:43:00,
2013-03-13 00:47:00,57.5,54.3,30.05,NW,326,2.0,5.0,89,0.00,,,0.19,Wunderground v.1.15,2013-03-13 04:47:00,
2013-03-13 00:48:00,57.3,54.1,30.05,NW,326,0.0,5.0,89,0.00,,,0.19,Wunderground v.1.15,2013-03-13 04:48:00,
2013-03-13 00:52:00,57.2,54.0,30.04,NW,326,0.0,1.0,89,0.00,,,0.19,Wunderground v.1.15,2013-03-13 04:52:00,
2013-03-13 00:53:00,57.2,54.0,30.04,NW,326,0.0,1.0,89,0.00,,,0.19,Wunderground v.1.15,2013-03-13 04:53:00,
2013-03-13 00:54:00,57.2,54.0,30.04,NW,326,0.0,1.0,89,0.00,,,0.19,Wunderground v.1.15,2013-03-13 04:54:00,
2013-03-13 00:58:00,57.0,53.8,30.05,NNW,344,0.0,3.0,89,0.00,,,0.19,Wunderground v.1.15,2013-03-13 04:58:00,
2013-03-13 00:59:00,57.0,53.8,30.05,NNW,344,0.0,3.0,89,0.00,,,0.19,Wunderground v.1.15,2013-03-13 04:59:00,
2013-03-13 01:00:00,57.0,53.8,30.05,NNW,344,0.0,3.0,89,0.00,,,0.19,Wunderground v.1.15,2013-03-13 05:00:00,
2013-03-13 01:03:00,56.9,53.7,30.05,NNW,344,0.0,0.0,89,0.00,,,0.00,Wunderground v.1.15,2013-03-13 05:03:00,
2013-03-13 01:05:00,56.9,53.7,30.05,NNW,344,0.0,0.0,89,0.00,,,0.00,Wunderground v.1.15,2013-03-13 05:05:00,
2013-03-13 01:06:00,56.7,53.5,30.05,NNW,344,0.0,0.0,89,0.00,,,0.00,Wunderground v.1.15,2013-03-13 05:06:00,
2013-03-13 01:09:00,56.7,53.5,30.05,NNW,342,0.0,2.0,89,0.00,,,0.00,Wunderground v.1.15,2013-03-13 05:09:00,
2013-03-13 01:10:00,56.7,53.5,30.05,NNW,342,0.0,0.0,89,0.00,,,0.00,Wunderground v.1.15,2013-03-13 05:10:00,
2013-03-13 01:12:00,56.6,53.7,30.05,NNW,342,0.0,1.0,90,0.00,,,0.00,Wunderground v.1.15,2013-03-13 05:12:00,
2013-03-13 01:16:00,56.5,53.3,30.04,NNW,342,0.0,1.0,89,0.00,,,0.00,Wunderground v.1.15,2013-03-13 05:16:00,
2013-03-13 01:17:00,56.5,53.3,30.05,NNW,342,0.0,1.0,89,0.00,,,0.00,Wunderground v.1.15,2013-03-13 05:17:00,
2013-03-13 01:19:00,56.5,53.3,30.05,NNW,345,0.0,1.0,89,0.00,,,0.00,Wunderground v.1.15,2013-03-13 05:19:00,
2013-03-13 01:21:00,56.3,53.1,30.05,North,360,0.0,1.0,89,0.00,,,0.00,Wunderground v.1.15,2013-03-13 05:21:00,
2013-03-13 01:24:00,56.3,53.1,30.05,North,355,0.0,1.0,89,0.00,,,0.00,Wunderground v.1.15,2013-03-13 05:24:00,
2013-03-13 01:27:00,56.2,53.0,30.05,North,355,0.0,1.0,89,0.00,,,0.00,Wunderground v.1.15,2013-03-13 05:27:00,
2013-03-13 01:28:00,56.2,53.0,30.05,NNW,331,1.0,1.0,89,0.00,,,0.00,Wunderground v.1.15,2013-03-13 05:28:00,
2013-03-13 01:29:00,56.0,52.8,30.05,NNW,331,0.0,1.0,89,0.00,,,0.00,Wunderground v.1.15,2013-03-13 05:29:00,
2013-03-13 01:33:00,56.0,52.8,30.05,NE,38,2.0,4.0,89,0.00,,,0.00,Wunderground v.1.15,2013-03-13 05:33:00,
2013-03-13 01:34:00,56.0,52.8,30.05,North,350,0.0,4.0,89,0.00,,,0.00,Wunderground v.1.15,2013-03-13 05:34:00,
2013-03-13 01:35:00,55.9,52.7,30.05,North,350,0.0,4.0,89,0.00,,,0.00,Wunderground v.1.15,2013-03-13 05:35:00,
2013-03-13 01:38:00,55.7,52.5,30.05,WNW,301,0.0,4.0,89,0.00,,,0.00,Wunderground v.1.15,2013-03-13 05:38:00,
2013-03-13 01:39:00,55.7,52.5,30.05,North,355,2.0,4.0,89,0.00,,,0.00,Wunderground v.1.15,2013-03-13 05:39:00,
2013-03-13 01:40:00,55.7,52.5,30.05,North,355,0.0,1.0,89,0.00,,,0.00,Wunderground v.1.15,2013-03-13 05:40:00,
2013-03-13 01:45:00,55.6,52.4,30.05,North,360,0.0,2.0,89,0.00,,,0.00,Wunderground v.1.15,2013-03-13 05:45:00,
2013-03-13 01:46:00,55.6,52.4,30.05,NNW,340,4.0,4.0,89,0.00,,,0.00,Wunderground v.1.15,2013-03-13 05:46:00,
2013-03-13 01:48:00,55.6,52.4,30.05,NNW,347,1.0,4.0,89,0.00,,,0.00,Wunderground v.1.15,2013-03-13 05:48:00,
2013-03-13 01:49:00,55.4,52.2,30.05,NNW,346,1.0,4.0,89,0.00,,,0.00,Wunderground v.1.15,2013-03-13 05:49:00,
2013-03-13 01:52:00,55.3,51.8,30.05,NNW,346,0.0,1.0,88,0.00,,,0.00,Wunderground v.1.15,2013-03-13 05:52:00,
2013-03-13 01:54:00,55.3,51.8,30.05,NNW,346,0.0,1.0,88,0.00,,,0.00,Wunderground v.1.15,2013-03-13 05:54:00,
2013-03-13 01:59:00,55.0,51.5,30.05,North,360,0.0,1.0,88,0.00,,,0.00,Wunderground v.1.15,2013-03-13 05:59:00,
2013-03-13 02:00:00,55.0,51.5,30.05,North,360,0.0,0.0,88,0.00,,,0.00,Wunderground v.1.15,2013-03-13 06:00:00,
2013-03-13 02:01:00,55.0,51.5,30.05,North,360,1.0,1.0,88,0.00,,,0.00,Wunderground v.1.15,2013-03-13 06:01:00,
2013-03-13 02:03:00,55.0,51.5,30.05,NE,44,0.0,1.0,88,0.00,,,0.00,Wunderground v.1.15,2013-03-13 06:03:00,
2013-03-13 02:06:00,54.8,51.3,30.05,NE,44,0.0,1.0,88,0.00,,,0.00,Wunderground v.1.15,2013-03-13 06:06:00,
2013-03-13 02:09:00,54.8,51.3,30.05,NE,44,0.0,1.0,88,0.00,,,0.00,Wunderground v.1.15,2013-03-13 06:09:00,
2013-03-13 02:11:00,54.8,51.3,30.05,NE,40,0.0,0.0,88,0.00,,,0.00,Wunderground v.1.15,2013-03-13 06:11:00,
2013-03-13 02:15:00,54.7,50.9,30.06,NNW,336,0.0,0.0,87,0.00,,,0.00,Wunderground v.1.15,2013-03-13 06:15:00,
2013-03-13 02:16:00,54.7,50.9,30.06,NNW,336,0.0,0.0,87,0.00,,,0.00,Wunderground v.1.15,2013-03-13 06:16:00,
2013-03-13 02:17:00,54.7,50.9,30.06,NNW,336,0.0,0.0,87,0.00,,,0.00,Wunderground v.1.15,2013-03-13 06:17:00,
2013-03-13 02:20:00,54.7,50.9,30.06,NNW,339,0.0,0.0,87,0.00,,,0.00,Wunderground v.1.15,2013-03-13 06:20:00,
2013-03-13 02:22:00,54.7,50.9,30.06,NNW,339,0.0,0.0,87,0.00,,,0.00,Wunderground v.1.15,2013-03-13 06:22:00,
2013-03-13 02:25:00,54.5,50.7,30.06,NNW,339,1.0,1.0,87,0.00,,,0.00,Wunderground v.1.15,2013-03-13 06:25:00,
2013-03-13 02:26:00,54.5,50.7,30.06,NNW,339,0.0,1.0,87,0.00,,,0.00,Wunderground v.1.15,2013-03-13 06:26:00,
2013-03-13 02:29:00,54.4,50.6,30.05,North,349,0.0,1.0,87,0.00,,,0.00,Wunderground v.1.15,2013-03-13 06:29:00,
2013-03-13 02:30:00,54.4,50.6,30.05,North,349,0.0,0.0,87,0.00,,,0.00,Wunderground v.1.15,2013-03-13 06:30:00,
2013-03-13 02:31:00,54.4,50.6,30.05,North,349,0.0,0.0,87,0.00,,,0.00,Wunderground v.1.15,2013-03-13 06:31:00,
2013-03-13 02:35:00,54.2,50.1,30.05,North,349,0.0,0.0,86,0.00,,,0.00,Wunderground v.1.15,2013-03-13 06:35:00,
2013-03-13 02:38:00,54.1,50.0,30.05,NW,309,0.0,0.0,86,0.00,,,0.00,Wunderground v.1.15,2013-03-13 06:38:00,
2013-03-13 02:40:00,53.9,49.8,30.05,NW,319,0.0,0.0,86,0.00,,,0.00,Wunderground v.1.15,2013-03-13 06:40:00,
2013-03-13 02:42:00,53.9,49.8,30.05,NW,319,1.0,1.0,86,0.00,,,0.00,Wunderground v.1.15,2013-03-13 06:42:00,
2013-03-13 02:45:00,53.8,49.7,30.05,NW,320,0.0,1.0,86,0.00,,,0.00,Wunderground v.1.15,2013-03-13 06:45:00,
2013-03-13 02:46:00,53.8,49.7,30.05,NW,320,0.0,1.0,86,0.00,,,0.00,Wunderground v.1.15,2013-03-13 06:46:00,
2013-03-13 02:50:00,53.5,49.4,30.05,NW,320,0.0,0.0,86,0.00,,,0.00,Wunderground v.1.15,2013-03-13 06:50:00,
2013-03-13 02:51:00,53.5,49.4,30.05,NW,320,0.0,0.0,86,0.00,,,0.00,Wunderground v.1.15,2013-03-13 06:51:00,
2013-03-13 02:53:00,53.3,49.2,30.05,NW,320,0.0,0.0,86,0.00,,,0.00,Wunderground v.1.15,2013-03-13 06:53:00,
2013-03-13 02:58:00,53.1,49.0,30.05,NW,320,0.0,0.0,86,0.00,,,0.00,Wunderground v.1.15,2013-03-13 06:58:00,
2013-03-13 03:00:00,53.1,49.0,30.05,NE,52,0.0,0.0,86,0.00,,,0.00,Wunderground v.1.15,2013-03-13 07:00:00,
2013-03-13 03:01:00,53.1,49.0,30.05,NE,52,0.0,0.0,86,0.00,,,0.00,Wunderground v.1.15,2013-03-13 07:01:00,
2013-03-13 03:03:00,52.9,48.8,30.05,NE,52,0.0,0.0,86,0.00,,,0.00,Wunderground v.1.15,2013-03-13 07:03:00,
2013-03-13 03:05:00,52.9,48.8,30.05,NE,52,0.0,0.0,86,0.00,,,0.00,Wunderground v.1.15,2013-03-13 07:05:00,
2013-03-13 03:06:00,53.1,49.0,30.05,NE,52,0.0,0.0,86,0.00,,,0.00,Wunderground v.1.15,2013-03-13 07:06:00,
2013-03-13 03:09:00,53.1,49.0,30.04,NE,52,0.0,0.0,86,0.00,,,0.00,Wunderground v.1.15,2013-03-13 07:09:00,
2013-03-13 03:10:00,53.1,49.0,30.04,NE,52,0.0,0.0,86,0.00,,,0.00,Wunderground v.1.15,2013-03-13 07:10:00,
2013-03-13 03:11:00,53.1,49.0,30.04,NE,52,0.0,0.0,86,0.00,,,0.00,Wunderground v.1.15,2013-03-13 07:11:00,
2013-03-13 03:12:00,52.9,48.8,30.04,NE,52,0.0,0.0,86,0.00,,,0.00,Wunderground v.1.15,2013-03-13 07:12:00,
2013-03-13 03:14:00,52.9,48.8,30.05,NE,52,0.0,0.0,86,0.00,,,0.00,Wunderground v.1.15,2013-03-13 07:14:00,
2013-03-13 03:16:00,52.9,48.8,30.04,NE,52,0.0,0.0,86,0.00,,,0.00,Wunderground v.1.15,2013-03-13 07:16:00,
2013-03-13 03:17:00,52.9,48.8,30.04,NE,52,0.0,0.0,86,0.00,,,0.00,Wunderground v.1.15,2013-03-13 07:17:00,
2013-03-13 03:19:00,52.9,48.8,30.04,NE,52,0.0,0.0,86,0.00,,,0.00,Wunderground v.1.15,2013-03-13 07:19:00,
2013-03-13 03:22:00,52.9,48.8,30.05,North,355,0.0,1.0,86,0.00,,,0.00,Wunderground v.1.15,2013-03-13 07:22:00,
2013-03-13 03:23:00,52.9,48.8,30.05,North,355,0.0,1.0,86,0.00,,,0.00,Wunderground v.1.15,2013-03-13 07:23:00,
2013-03-13 03:24:00,52.9,48.8,30.04,NNE,26,0.0,1.0,86,0.00,,,0.00,Wunderground v.1.15,2013-03-13 07:24:00,
2013-03-13 03:27:00,52.9,48.8,30.04,NNE,26,0.0,2.0,86,0.00,,,0.00,Wunderground v.1.15,2013-03-13 07:27:00,
2013-03-13 03:28:00,52.9,48.8,30.04,NNE,26,0.0,2.0,86,0.00,,,0.00,Wunderground v.1.15,2013-03-13 07:28:00,
2013-03-13 03:30:00,52.9,48.5,30.05,North,5,0.0,2.0,85,0.00,,,0.00,Wunderground v.1.15,2013-03-13 07:30:00,
2013-03-13 03:33:00,52.9,48.5,30.05,NW,317,0.0,2.0,85,0.00,,,0.00,Wunderground v.1.15,2013-03-13 07:33:00,
2013-03-13 03:35:00,52.9,48.5,30.04,North,360,0.0,2.0,85,0.00,,,0.00,Wunderground v.1.15,2013-03-13 07:35:00,
2013-03-13 03:38:00,53.1,48.7,30.04,North,11,0.0,5.0,85,0.00,,,0.00,Wunderground v.1.15,2013-03-13 07:38:00,
2013-03-13 03:39:00,53.1,48.7,30.04,North,11,0.0,5.0,85,0.00,,,0.00,Wunderground v.1.15,2013-03-13 07:39:00,
2013-03-13 03:41:00,53.1,48.7,30.04,NW,313,0.0,2.0,85,0.00,,,0.00,Wunderground v.1.15,2013-03-13 07:41:00,
2013-03-13 03:44:00,53.1,48.4,30.04,NW,313,0.0,2.0,84,0.00,,,0.00,Wunderground v.1.15,2013-03-13 07:44:00,
2013-03-13 03:45:00,53.1,48.4,30.04,NW,313,0.0,2.0,84,0.00,,,0.00,Wunderground v.1.15,2013-03-13 07:45:00,
2013-03-13 03:46:00,52.9,48.2,30.04,NW,313,0.0,2.0,84,0.00,,,0.00,Wunderground v.1.15,2013-03-13 07:46:00,
2013-03-13 03:49:00,52.9,48.2,30.04,NW,313,0.0,2.0,84,0.00,,,0.00,Wunderground v.1.15,2013-03-13 07:49:00,
2013-03-13 03:50:00,52.9,48.2,30.04,NW,325,0.0,0.0,84,0.00,,,0.00,Wunderground v.1.15,2013-03-13 07:50:00,
2013-03-13 03:52:00,52.9,48.2,30.04,NW,325,0.0,0.0,84,0.00,,,0.00,Wunderground v.1.15,2013-03-13 07:52:00,
2013-03-13 03:54:00,52.8,48.1,30.04,NW,325,0.0,0.0,84,0.00,,,0.00,Wunderground v.1.15,2013-03-13 07:54:00,
2013-03-13 03:55:00,52.8,47.8,30.04,NW,309,0.0,1.0,83,0.00,,,0.00,Wunderground v.1.15,2013-03-13 07:55:00,
2013-03-13 03:57:00,52.9,47.9,30.04,NW,311,0.0,1.0,83,0.00,,,0.00,Wunderground v.1.15,2013-03-13 07:57:00,
2013-03-13 03:59:00,52.8,47.8,30.05,NW,311,0.0,1.0,83,0.00,,,0.00,Wunderground v.1.15,2013-03-13 07:59:00,
2013-03-13 04:01:00,52.8,47.8,30.05,NW,311,0.0,0.0,83,0.00,,,0.00,Wunderground v.1.15,2013-03-13 08:01:00,
2013-03-13 04:02:00,52.8,47.5,30.05,NW,311,0.0,0.0,82,0.00,,,0.00,Wunderground v.1.15,2013-03-13 08:02:00,
2013-03-13 04:04:00,52.8,47.5,30.04,NW,311,0.0,0.0,82,0.00,,,0.00,Wunderground v.1.15,2013-03-13 08:04:00,
2013-03-13 04:06:00,52.8,47.5,30.04,NW,311,0.0,0.0,82,0.00,,,0.00,Wunderground v.1.15,2013-03-13 08:06:00,
2013-03-13 04:08:00,52.8,47.5,30.04,NW,311,0.0,0.0,82,0.00,,,0.00,Wunderground v.1.15,2013-03-13 08:08:00,
2013-03-13 04:09:00,52.6,47.3,30.04,NNW,341,0.0,1.0,82,0.00,,,0.00,Wunderground v.1.15,2013-03-13 08:09:00,
2013-03-13 04:10:00,52.6,47.3,30.04,NNW,341,0.0,0.0,82,0.00,,,0.00,Wunderground v.1.15,2013-03-13 08:10:00,
2013-03-13 04:12:00,52.6,47.3,30.04,NNW,339,1.0,2.0,82,0.00,,,0.00,Wunderground v.1.15,2013-03-13 08:12:00,
2013-03-13 04:13:00,52.8,47.5,30.04,North,5,0.0,2.0,82,0.00,,,0.00,Wunderground v.1.15,2013-03-13 08:13:00,
2013-03-13 04:15:00,52.8,47.1,30.04,North,9,0.0,2.0,81,0.00,,,0.00,Wunderground v.1.15,2013-03-13 08:15:00,
2013-03-13 04:17:00,52.8,47.1,30.04,North,9,0.0,2.0,81,0.00,,,0.00,Wunderground v.1.15,2013-03-13 08:17:00,
2013-03-13 04:18:00,52.8,47.1,30.04,North,5,0.0,2.0,81,0.00,,,0.00,Wunderground v.1.15,2013-03-13 08:18:00,
2013-03-13 04:20:00,52.6,46.9,30.04,North,360,0.0,0.0,81,0.00,,,0.00,Wunderground v.1.15,2013-03-13 08:20:00,
2013-03-13 04:21:00,52.6,46.6,30.04,NW,306,2.0,2.0,80,0.00,,,0.00,Wunderground v.1.15,2013-03-13 08:21:00,
2013-03-13 04:22:00,52.6,46.6,30.04,NNW,332,0.0,4.0,80,0.00,,,0.00,Wunderground v.1.15,2013-03-13 08:22:00,
2013-03-13 04:23:00,52.6,46.6,30.04,NNW,332,0.0,4.0,80,0.00,,,0.00,Wunderground v.1.15,2013-03-13 08:23:00,
2013-03-13 04:26:00,52.6,46.6,30.04,NNW,333,0.0,4.0,80,0.00,,,0.00,Wunderground v.1.15,2013-03-13 08:26:00,
2013-03-13 04:27:00,52.6,46.6,30.04,NNW,333,0.0,4.0,80,0.00,,,0.00,Wunderground v.1.15,2013-03-13 08:27:00,
2013-03-13 04:29:00,52.6,46.3,30.04,NNW,333,0.0,4.0,79,0.00,,,0.00,Wunderground v.1.15,2013-03-13 08:29:00,
2013-03-13 04:32:00,52.5,46.2,30.05,NNW,333,0.0,0.0,79,0.00,,,0.00,Wunderground v.1.15,2013-03-13 08:32:00,
2013-03-13 04:34:00,52.5,46.2,30.05,NNW,333,0.0,1.0,79,0.00,,,0.00,Wunderground v.1.15,2013-03-13 08:34:00,
2013-03-13 04:37:00,52.3,46.0,30.05,NNW,333,0.0,1.0,79,0.00,,,0.00,Wunderground v.1.15,2013-03-13 08:37:00,
2013-03-13 04:40:00,52.2,45.9,30.05,NNW,346,0.0,0.0,79,0.00,,,0.00,Wunderground v.1.15,2013-03-13 08:40:00,
2013-03-13 04:42:00,52.2,45.9,30.05,NNW,346,0.0,0.0,79,0.00,,,0.00,Wunderground v.1.15,2013-03-13 08:42:00,
2013-03-13 04:45:00,52.0,46.0,30.05,NNW,346,0.0,0.0,80,0.00,,,0.00,Wunderground v.1.15,2013-03-13 08:45:00,
2013-03-13 04:47:00,52.0,45.7,30.05,NNW,346,0.0,0.0,79,0.00,,,0.00,Wunderground v.1.15,2013-03-13 08:47:00,
2013-03-13 04:49:00,52.0,46.0,30.05,NNW,346,0.0,0.0,80,0.00,,,0.00,Wunderground v.1.15,2013-03-13 08:49:00,
2013-03-13 04:50:00,51.9,45.6,30.05,NNW,346,0.0,0.0,79,0.00,,,0.00,Wunderground v.1.15,2013-03-13 08:50:00,
2013-03-13 04:52:00,51.9,45.6,30.05,NNW,346,0.0,0.0,79,0.00,,,0.00,Wunderground v.1.15,2013-03-13 08:52:00,
2013-03-13 04:53:00,51.9,45.6,30.05,NNW,346,0.0,0.0,79,0.00,,,0.00,Wunderground v.1.15,2013-03-13 08:53:00,
2013-03-13 04:54:00,51.9,45.9,30.05,NNW,346,0.0,0.0,80,0.00,,,0.00,Wunderground v.1.15,2013-03-13 08:54:00,
2013-03-13 04:56:00,51.7,45.7,30.05,NNW,346,0.0,0.0,80,0.00,,,0.00,Wunderground v.1.15,2013-03-13 08:56:00,
2013-03-13 04:58:00,51.9,45.9,30.05,NNW,346,0.0,0.0,80,0.00,,,0.00,Wunderground v.1.15,2013-03-13 08:58:00,
2013-03-13 05:00:00,51.7,45.4,30.05,NW,305,4.0,4.0,79,0.00,,,0.00,Wunderground v.1.15,2013-03-13 09:00:00,
2013-03-13 05:01:00,51.7,45.4,30.05,NW,304,0.0,1.0,79,0.00,,,0.00,Wunderground v.1.15,2013-03-13 09:01:00,
2013-03-13 05:03:00,51.7,45.4,30.05,NNE,27,0.0,2.0,79,0.00,,,0.00,Wunderground v.1.15,2013-03-13 09:03:00,
2013-03-13 05:05:00,51.7,45.4,30.05,NW,324,0.0,4.0,79,0.00,,,0.00,Wunderground v.1.15,2013-03-13 09:05:00,
2013-03-13 05:06:00,51.9,45.6,30.05,NW,324,0.0,4.0,79,0.00,,,0.00,Wunderground v.1.15,2013-03-13 09:06:00,
2013-03-13 05:08:00,51.9,45.6,30.05,NNW,335,0.0,4.0,79,0.00,,,0.00,Wunderground v.1.15,2013-03-13 09:08:00,
2013-03-13 05:09:00,51.9,45.3,30.05,NNW,335,0.0,4.0,78,0.00,,,0.00,Wunderground v.1.15,2013-03-13 09:09:00,
2013-03-13 05:10:00,51.9,45.3,30.05,NNW,344,2.0,4.0,78,0.00,,,0.00,Wunderground v.1.15,2013-03-13 09:10:00,
2013-03-13 05:12:00,51.9,45.3,30.05,North,355,0.0,2.0,78,0.00,,,0.00,Wunderground v.1.15,2013-03-13 09:12:00,
2013-03-13 05:13:00,51.9,45.3,30.06,North,355,0.0,2.0,78,0.00,,,0.00,Wunderground v.1.15,2013-03-13 09:13:00,
2013-03-13 05:14:00,51.9,45.3,30.06,North,355,0.0,2.0,78,0.00,,,0.00,Wunderground v.1.15,2013-03-13 09:14:00,
2013-03-13 05:15:00,51.9,45.3,30.06,North,355,1.0,2.0,78,0.00,,,0.00,Wunderground v.1.15,2013-03-13 09:15:00,
2013-03-13 05:18:00,51.9,44.9,30.06,North,355,0.0,2.0,77,0.00,,,0.00,Wunderground v.1.15,2013-03-13 09:18:00,
2013-03-13 05:19:00,51.9,44.9,30.06,NW,315,0.0,2.0,77,0.00,,,0.00,Wunderground v.1.15,2013-03-13 09:19:00,
2013-03-13 05:22:00,51.9,44.9,30.06,NW,320,0.0,1.0,77,0.00,,,0.00,Wunderground v.1.15,2013-03-13 09:22:00,
2013-03-13 05:23:00,51.9,44.9,30.06,NW,320,0.0,1.0,77,0.00,,,0.00,Wunderground v.1.15,2013-03-13 09:23:00,
2013-03-13 05:24:00,51.7,44.7,30.06,NW,320,0.0,1.0,77,0.00,,,0.00,Wunderground v.1.15,2013-03-13 09:24:00,
2013-03-13 05:25:00,51.7,44.7,30.06,North,5,1.0,1.0,77,0.00,,,0.00,Wunderground v.1.15,2013-03-13 09:25:00,
2013-03-13 05:27:00,51.7,44.7,30.06,NNE,17,0.0,2.0,77,0.00,,,0.00,Wunderground v.1.15,2013-03-13 09:27:00,
2013-03-13 05:28:00,51.7,44.7,30.06,NNE,17,0.0,2.0,77,0.00,,,0.00,Wunderground v.1.15,2013-03-13 09:28:00,
2013-03-13 05:30:00,51.7,44.7,30.06,NNE,17,0.0,2.0,77,0.00,,,0.00,Wunderground v.1.15,2013-03-13 09:30:00,
2013-03-13 05:32:00,51.6,44.3,30.06,NW,326,0.0,1.0,76,0.00,,,0.00,Wunderground v.1.15,2013-03-13 09:32:00,
2013-03-13 05:33:00,51.6,44.3,30.06,NNW,328,0.0,1.0,76,0.00,,,0.00,Wunderground v.1.15,2013-03-13 09:33:00,
2013-03-13 05:35:00,51.6,44.3,30.07,NNW,328,0.0,1.0,76,0.00,,,0.00,Wunderground v.1.15,2013-03-13 09:35:00,
2013-03-13 05:36:00,51.6,44.3,30.06,NNW,328,0.0,1.0,76,0.00,,,0.00,Wunderground v.1.15,2013-03-13 09:36:00,
2013-03-13 05:38:00,51.4,44.1,30.07,NNW,337,0.0,1.0,76,0.00,,,0.00,Wunderground v.1.15,2013-03-13 09:38:00,
2013-03-13 05:40:00,51.4,44.1,30.07,NNW,337,0.0,1.0,76,0.00,,,0.00,Wunderground v.1.15,2013-03-13 09:40:00,
2013-03-13 05:41:00,51.4,44.1,30.07,NNW,331,1.0,5.0,76,0.00,,,0.00,Wunderground v.1.15,2013-03-13 09:41:00,
2013-03-13 05:43:00,51.4,44.1,30.07,NNW,332,0.0,5.0,76,0.00,,,0.00,Wunderground v.1.15,2013-03-13 09:43:00,
2013-03-13 05:45:00,51.4,44.1,30.07,NNW,332,0.0,5.0,76,0.00,,,0.00,Wunderground v.1.15,2013-03-13 09:45:00,
2013-03-13 05:47:00,51.4,44.1,30.07,NNW,332,0.0,5.0,76,0.00,,,0.00,Wunderground v.1.15,2013-03-13 09:47:00,
2013-03-13 05:48:00,51.4,43.7,30.07,North,351,0.0,5.0,75,0.00,,,0.00,Wunderground v.1.15,2013-03-13 09:48:00,
2013-03-13 05:49:00,51.4,43.7,30.07,North,351,0.0,5.0,75,0.00,,,0.00,Wunderground v.1.15,2013-03-13 09:49:00,
2013-03-13 05:50:00,51.4,43.7,30.07,North,351,0.0,0.0,75,0.00,,,0.00,Wunderground v.1.15,2013-03-13 09:50:00,
2013-03-13 05:52:00,51.3,44.0,30.07,NNW,338,0.0,3.0,76,0.00,,,0.00,Wunderground v.1.15,2013-03-13 09:52:00,
2013-03-13 05:53:00,51.3,43.6,30.08,NNW,338,0.0,3.0,75,0.00,,,0.00,Wunderground v.1.15,2013-03-13 09:53:00,
2013-03-13 05:54:00,51.3,43.6,30.07,NNW,338,0.0,3.0,75,0.00,,,0.00,Wunderground v.1.15,2013-03-13 09:54:00,
2013-03-13 05:55:00,51.1,43.4,30.07,NNW,338,0.0,3.0,75,0.00,,,0.00,Wunderground v.1.15,2013-03-13 09:55:00,
2013-03-13 05:57:00,51.1,43.4,30.07,NNW,338,0.0,3.0,75,0.00,,,0.00,Wunderground v.1.15,2013-03-13 09:57:00,
2013-03-13 05:59:00,51.0,43.7,30.07,NNW,338,0.0,3.0,76,0.00,,,0.00,Wunderground v.1.15,2013-03-13 09:59:00,
2013-03-13 06:00:00,51.0,43.4,30.08,NE,42,0.0,1.0,75,0.00,,,0.00,Wunderground v.1.15,2013-03-13 10:00:00,
2013-03-13 06:02:00,51.0,43.4,30.07,NE,38,0.0,1.0,75,0.00,,,0.00,Wunderground v.1.15,2013-03-13 10:02:00,
2013-03-13 06:04:00,51.0,43.4,30.08,NE,37,0.0,1.0,75,0.00,,,0.00,Wunderground v.1.15,2013-03-13 10:04:00,
2013-03-13 06:06:00,51.0,43.4,30.08,West,264,1.0,1.0,75,0.00,,,0.00,Wunderground v.1.15,2013-03-13 10:06:00,
2013-03-13 06:08:00,51.0,43.7,30.08,NNW,331,0.0,6.0,76,0.00,,,0.00,Wunderground v.1.15,2013-03-13 10:08:00,
2013-03-13 06:09:00,51.0,43.7,30.08,NNW,331,0.0,6.0,76,0.00,,,0.00,Wunderground v.1.15,2013-03-13 10:09:00,
2013-03-13 06:11:00,50.8,43.5,30.08,NNW,334,0.0,0.0,76,0.00,,,0.00,Wunderground v.1.15,2013-03-13 10:11:00,
2013-03-13 06:13:00,50.8,43.5,30.08,NNW,334,0.0,0.0,76,0.00,,,0.00,Wunderground v.1.15,2013-03-13 10:13:00,
2013-03-13 06:14:00,50.7,43.4,30.08,NNW,334,0.0,0.0,76,0.00,,,0.00,Wunderground v.1.15,2013-03-13 10:14:00,
2013-03-13 06:16:00,50.7,43.4,30.08,NNW,334,0.0,1.0,76,0.00,,,0.00,Wunderground v.1.15,2013-03-13 10:16:00,
2013-03-13 06:18:00,50.5,43.2,30.08,NNW,348,0.0,2.0,76,0.00,,,0.00,Wunderground v.1.15,2013-03-13 10:18:00,
2013-03-13 06:20:00,50.5,43.2,30.08,North,355,0.0,2.0,76,0.00,,,0.00,Wunderground v.1.15,2013-03-13 10:20:00,
2013-03-13 06:22:00,50.5,43.2,30.08,North,355,0.0,0.0,76,0.00,,,0.00,Wunderground v.1.15,2013-03-13 10:22:00,
2013-03-13 06:23:00,50.5,43.2,30.08,NW,320,2.0,2.0,76,0.00,,,0.00,Wunderground v.1.15,2013-03-13 10:23:00,
2013-03-13 06:25:00,50.4,43.1,30.08,NW,320,0.0,2.0,76,0.00,,,0.00,Wunderground v.1.15,2013-03-13 10:25:00,
2013-03-13 06:26:00,50.4,43.1,30.08,NW,320,0.0,2.0,76,0.00,,,0.00,Wunderground v.1.15,2013-03-13 10:26:00,
2013-03-13 06:28:00,50.4,43.1,30.08,NW,320,0.0,2.0,76,0.00,,,0.00,Wunderground v.1.15,2013-03-13 10:28:00,
2013-03-13 06:31:00,50.2,43.3,30.09,NW,321,0.0,0.0,77,0.00,,,0.00,Wunderground v.1.15,2013-03-13 10:31:00,
2013-03-13 06:32:00,50.2,43.3,30.09,NW,321,0.0,0.0,77,0.00,,,0.00,Wunderground v.1.15,2013-03-13 10:32:00,
2013-03-13 06:33:00,50.1,43.2,30.09,NW,321,0.0,0.0,77,0.00,,,0.00,Wunderground v.1.15,2013-03-13 10:33:00,
2013-03-13 06:34:00,50.1,43.2,30.09,NW,321,0.0,0.0,77,0.00,,,0.00,Wunderground v.1.15,2013-03-13 10:34:00,
2013-03-13 06:36:00,49.9,43.0,30.09,NNW,331,0.0,1.0,77,0.00,,,0.00,Wunderground v.1.15,2013-03-13 10:36:00,
2013-03-13 06:37:00,49.9,43.0,30.09,NNW,331,0.0,1.0,77,0.00,,,0.00,Wunderground v.1.15,2013-03-13 10:37:00,
2013-03-13 06:38:00,49.8,42.9,30.09,NNW,331,0.0,1.0,77,0.00,,,0.00,Wunderground v.1.15,2013-03-13 10:38:00,
2013-03-13 06:39:00,49.8,42.9,30.09,North,350,0.0,1.0,77,0.00,,,0.00,Wunderground v.1.15,2013-03-13 10:39:00,
2013-03-13 06:42:00,49.6,43.0,30.09,North,350,0.0,0.0,78,0.00,,,0.00,Wunderground v.1.15,2013-03-13 10:42:00,
2013-03-13 06:44:00,49.6,43.0,30.09,NNE,15,0.0,2.0,78,0.00,,,0.00,Wunderground v.1.15,2013-03-13 10:44:00,
2013-03-13 06:47:00,49.6,43.0,30.10,North,5,0.0,2.0,78,0.00,,,0.00,Wunderground v.1.15,2013-03-13 10:47:00,
2013-03-13 06:49:00,49.5,42.9,30.10,North,5,0.0,2.0,78,0.00,,,0.00,Wunderground v.1.15,2013-03-13 10:49:00,
2013-03-13 06:52:00,49.5,42.9,30.10,North,5,0.0,0.0,78,0.00,,,0.00,Wunderground v.1.15,2013-03-13 10:52:00,
2013-03-13 06:54:00,49.4,42.8,30.10,North,349,1.0,2.0,78,0.00,,,0.00,Wunderground v.1.15,2013-03-13 10:54:00,
2013-03-13 06:57:00,49.4,42.8,30.10,North,355,0.0,2.0,78,0.00,,,0.00,Wunderground v.1.15,2013-03-13 10:57:00,
2013-03-13 06:59:00,49.4,42.8,30.10,NW,307,0.0,2.0,78,0.00,,,0.00,Wunderground v.1.15,2013-03-13 10:59:00,
2013-03-13 07:00:00,49.4,42.8,30.10,NW,307,0.0,2.0,78,0.00,,,0.00,Wunderground v.1.15,2013-03-13 11:00:00,
2013-03-13 07:02:00,49.5,42.9,30.10,North,11,0.0,5.0,78,0.00,,,0.00,Wunderground v.1.15,2013-03-13 11:02:00,
2013-03-13 07:04:00,49.6,42.7,30.10,North,351,0.0,5.0,77,0.00,,,0.00,Wunderground v.1.15,2013-03-13 11:04:00,
2013-03-13 07:05:00,49.6,42.7,30.10,North,351,0.0,5.0,77,0.00,,,0.00,Wunderground v.1.15,2013-03-13 11:05:00,
2013-03-13 07:07:00,49.6,42.7,30.10,North,355,0.0,5.0,77,0.00,,,0.00,Wunderground v.1.15,2013-03-13 11:07:00,
2013-03-13 07:09:00,49.6,42.7,30.11,North,355,0.0,5.0,77,0.00,,,0.00,Wunderground v.1.15,2013-03-13 11:09:00,
2013-03-13 07:10:00,49.6,42.7,30.11,North,355,0.0,1.0,77,0.00,,,0.00,Wunderground v.1.15,2013-03-13 11:10:00,
2013-03-13 07:12:00,49.6,42.7,30.11,North,5,0.0,1.0,77,0.00,,,0.00,Wunderground v.1.15,2013-03-13 11:12:00,
2013-03-13 07:13:00,49.6,42.7,30.11,North,5,0.0,1.0,77,0.00,,,0.00,Wunderground v.1.15,2013-03-13 11:13:00,
2013-03-13 07:15:00,49.6,42.3,30.11,North,5,0.0,1.0,76,0.00,,,0.00,Wunderground v.1.15,2013-03-13 11:15:00,
2013-03-13 07:17:00,49.5,42.6,30.11,North,355,0.0,1.0,77,0.00,,,0.00,Wunderground v.1.15,2013-03-13 11:17:00,
2013-03-13 07:18:00,49.6,42.7,30.11,North,355,0.0,1.0,77,0.00,,,0.00,Wunderground v.1.15,2013-03-13 11:18:00,
2013-03-13 07:20:00,49.5,42.2,30.11,North,355,0.0,1.0,76,0.00,,,0.00,Wunderground v.1.15,2013-03-13 11:20:00,
2013-03-13 07:21:00,49.5,42.2,30.11,North,355,0.0,0.0,76,0.00,,,0.00,Wunderground v.1.15,2013-03-13 11:21:00,
2013-03-13 07:23:00,49.5,42.6,30.11,North,5,0.0,3.0,77,0.00,,,0.00,Wunderground v.1.15,2013-03-13 11:23:00,
2013-03-13 07:25:00,49.5,42.6,30.12,North,360,2.0,3.0,77,0.00,,,0.00,Wunderground v.1.15,2013-03-13 11:25:00,
2013-03-13 07:27:00,49.5,42.6,30.11,North,360,0.0,3.0,77,0.00,,,0.00,Wunderground v.1.15,2013-03-13 11:27:00,
2013-03-13 07:28:00,49.5,42.6,30.12,North,360,0.0,3.0,77,0.00,,,0.00,Wunderground v.1.15,2013-03-13 11:28:00,
2013-03-13 07:30:00,49.4,42.5,30.12,North,360,0.0,0.0,77,0.00,,,0.00,Wunderground v.1.15,2013-03-13 11:30:00,
2013-03-13 07:32:00,49.4,42.5,30.12,North,5,0.0,1.0,77,0.00,,,0.00,Wunderground v.1.15,2013-03-13 11:32:00,
2013-03-13 07:33:00,49.4,42.5,30.12,North,5,0.0,1.0,77,0.00,,,0.00,Wunderground v.1.15,2013-03-13 11:33:00,
2013-03-13 07:35:00,49.4,42.5,30.12,North,5,0.0,1.0,77,0.00,,,0.00,Wunderground v.1.15,2013-03-13 11:35:00,
2013-03-13 07:38:00,49.4,42.5,30.12,NW,321,0.0,2.0,77,0.00,,,0.00,Wunderground v.1.15,2013-03-13 11:38:00,
2013-03-13 07:39:00,49.5,42.6,30.12,NW,321,0.0,2.0,77,0.00,,,0.00,Wunderground v.1.15,2013-03-13 11:39:00,
2013-03-13 07:41:00,49.5,42.6,30.12,NNW,331,0.0,4.0,77,0.00,,,0.00,Wunderground v.1.15,2013-03-13 11:41:00,
2013-03-13 07:43:00,49.5,42.6,30.12,North,360,0.0,7.0,77,0.00,,,0.00,Wunderground v.1.15,2013-03-13 11:43:00,
2013-03-13 07:44:00,49.5,42.6,30.12,North,355,4.0,7.0,77,0.00,,,0.00,Wunderground v.1.15,2013-03-13 11:44:00,
2013-03-13 07:47:00,49.6,42.3,30.12,North,11,0.0,7.0,76,0.00,,,0.00,Wunderground v.1.15,2013-03-13 11:47:00,
2013-03-13 07:48:00,49.6,42.3,30.12,North,11,0.0,7.0,76,0.00,,,0.00,Wunderground v.1.15,2013-03-13 11:48:00,
2013-03-13 07:49:00,49.6,42.3,30.12,North,11,0.0,7.0,76,0.00,,,0.00,Wunderground v.1.15,2013-03-13 11:49:00,
2013-03-13 07:52:00,49.6,42.3,30.12,North,9,0.0,2.0,76,0.00,,,0.00,Wunderground v.1.15,2013-03-13 11:52:00,
2013-03-13 07:53:00,49.8,42.5,30.12,North,9,0.0,2.0,76,0.00,,,0.00,Wunderground v.1.15,2013-03-13 11:53:00,
2013-03-13 07:54:00,49.8,42.5,30.12,NNW,348,0.0,2.0,76,0.00,,,0.00,Wunderground v.1.15,2013-03-13 11:54:00,
2013-03-13 07:57:00,49.9,42.6,30.12,NNE,24,4.0,5.0,76,0.00,,,0.00,Wunderground v.1.15,2013-03-13 11:57:00,
2013-03-13 07:58:00,49.9,42.6,30.12,NNE,24,1.0,5.0,76,0.00,,,0.00,Wunderground v.1.15,2013-03-13 11:58:00,
2013-03-13 07:59:00,50.1,42.5,30.12,NNW,343,0.0,5.0,75,0.00,,,0.00,Wunderground v.1.15,2013-03-13 11:59:00,
2013-03-13 08:02:00,50.1,42.5,30.12,NNW,328,0.0,4.0,75,0.00,,,0.00,Wunderground v.1.15,2013-03-13 12:02:00,
2013-03-13 08:03:00,50.2,42.6,30.12,NNW,328,1.0,4.0,75,0.00,,,0.00,Wunderground v.1.15,2013-03-13 12:03:00,
2013-03-13 08:04:00,50.2,42.6,30.12,NNW,334,0.0,4.0,75,0.00,,,0.00,Wunderground v.1.15,2013-03-13 12:04:00,
2013-03-13 08:07:00,50.4,42.4,30.13,NNW,344,3.0,5.0,74,0.00,,,0.00,Wunderground v.1.15,2013-03-13 12:07:00,
2013-03-13 08:09:00,50.4,42.4,30.13,WNW,297,4.0,5.0,74,0.00,,,0.00,Wunderground v.1.15,2013-03-13 12:09:00,
2013-03-13 08:10:00,50.5,42.5,30.13,NNE,22,0.0,5.0,74,0.00,,,0.00,Wunderground v.1.15,2013-03-13 12:10:00,
2013-03-13 08:13:00,50.7,42.7,30.13,NW,319,0.0,2.0,74,0.00,,,0.00,Wunderground v.1.15,2013-03-13 12:13:00,
2013-03-13 08:14:00,50.7,42.7,30.13,NNW,348,3.0,3.0,74,0.00,,,0.00,Wunderground v.1.15,2013-03-13 12:14:00,
2013-03-13 08:15:00,50.7,42.7,30.13,NE,43,1.0,5.0,74,0.00,,,0.00,Wunderground v.1.15,2013-03-13 12:15:00,
2013-03-13 08:18:00,50.8,42.5,30.13,North,5,1.0,5.0,73,0.00,,,0.00,Wunderground v.1.15,2013-03-13 12:18:00,
2013-03-13 08:19:00,51.0,42.3,30.13,NNW,345,0.0,5.0,72,0.00,,,0.00,Wunderground v.1.15,2013-03-13 12:19:00,
2013-03-13 08:20:00,51.0,42.3,30.13,ENE,74,1.0,5.0,72,0.00,,,0.00,Wunderground v.1.15,2013-03-13 12:20:00,
2013-03-13 08:23:00,51.3,42.2,30.13,North,350,1.0,5.0,71,0.00,,,0.00,Wunderground v.1.15,2013-03-13 12:23:00,
2013-03-13 08:24:00,51.3,42.2,30.14,NW,319,1.0,5.0,71,0.00,,,0.00,Wunderground v.1.15,2013-03-13 12:24:00,
2013-03-13 08:25:00,51.3,42.2,30.14,NNW,340,0.0,5.0,71,0.00,,,0.00,Wunderground v.1.15,2013-03-13 12:25:00,
2013-03-13 08:28:00,51.4,42.3,30.14,NNW,339,0.0,5.0,71,0.00,,,0.00,Wunderground v.1.15,2013-03-13 12:28:00,
2013-03-13 08:29:00,51.4,42.3,30.14,NNW,337,0.0,5.0,71,0.00,,,0.00,Wunderground v.1.15,2013-03-13 12:29:00,
2013-03-13 08:30:00,51.4,42.3,30.14,NNW,344,0.0,1.0,71,0.00,,,0.00,Wunderground v.1.15,2013-03-13 12:30:00,
2013-03-13 08:33:00,51.7,42.6,30.14,NNE,24,0.0,5.0,71,0.00,,,0.00,Wunderground v.1.15,2013-03-13 12:33:00,
2013-03-13 08:34:00,51.7,42.6,30.14,NW,324,0.0,5.0,71,0.00,,,0.00,Wunderground v.1.15,2013-03-13 12:34:00,
2013-03-13 08:35:00,51.9,42.4,30.14,NW,319,0.0,5.0,70,0.00,,,0.00,Wunderground v.1.15,2013-03-13 12:35:00,
2013-03-13 08:36:00,51.9,42.4,30.14,NW,314,0.0,5.0,70,0.00,,,0.00,Wunderground v.1.15,2013-03-13 12:36:00,
2013-03-13 08:38:00,52.0,42.5,30.14,North,5,1.0,5.0,70,0.00,,,0.00,Wunderground v.1.15,2013-03-13 12:38:00,
2013-03-13 08:40:00,52.2,42.3,30.14,NNW,327,0.0,5.0,69,0.00,,,0.00,Wunderground v.1.15,2013-03-13 12:40:00,
2013-03-13 08:41:00,52.2,42.3,30.14,North,360,1.0,3.0,69,0.00,,,0.00,Wunderground v.1.15,2013-03-13 12:41:00,
2013-03-13 08:42:00,52.2,42.3,30.14,North,5,0.0,3.0,69,0.00,,,0.00,Wunderground v.1.15,2013-03-13 12:42:00,
2013-03-13 08:44:00,52.3,42.4,30.14,NNE,30,0.0,3.0,69,0.00,,,0.00,Wunderground v.1.15,2013-03-13 12:44:00,
2013-03-13 08:45:00,52.5,42.6,30.14,NNE,23,1.0,3.0,69,0.00,,,0.00,Wunderground v.1.15,2013-03-13 12:45:00,
2013-03-13 08:46:00,52.5,42.2,30.14,NNE,25,0.0,3.0,68,0.00,,,0.00,Wunderground v.1.15,2013-03-13 12:46:00,
2013-03-13 08:47:00,52.6,42.3,30.14,WNW,302,5.0,5.0,68,0.00,,,0.00,Wunderground v.1.15,2013-03-13 12:47:00,
2013-03-13 08:49:00,52.6,41.9,30.14,NNW,339,5.0,6.0,67,0.00,,,0.00,Wunderground v.1.15,2013-03-13 12:49:00,
2013-03-13 08:50:00,52.8,42.1,30.14,NNW,344,4.0,4.0,67,0.00,,,0.00,Wunderground v.1.15,2013-03-13 12:50:00,
2013-03-13 08:52:00,52.8,42.1,30.15,NNW,344,0.0,4.0,67,0.00,,,0.00,Wunderground v.1.15,2013-03-13 12:52:00,
2013-03-13 08:54:00,52.9,41.8,30.15,NNW,336,4.0,6.0,66,0.00,,,0.00,Wunderground v.1.15,2013-03-13 12:54:00,
2013-03-13 08:55:00,52.9,41.8,30.15,ENE,71,0.0,7.0,66,0.00,,,0.00,Wunderground v.1.15,2013-03-13 12:55:00,
2013-03-13 08:57:00,52.9,41.8,30.15,North,9,1.0,7.0,66,0.00,,,0.00,Wunderground v.1.15,2013-03-13 12:57:00,
2013-03-13 08:58:00,52.9,41.8,30.15,WNW,300,3.0,7.0,66,0.00,,,0.00,Wunderground v.1.15,2013-03-13 12:58:00,
2013-03-13 09:00:00,53.2,42.1,30.15,North,355,1.0,2.0,66,0.00,,,0.00,Wunderground v.1.15,2013-03-13 13:00:00,
2013-03-13 09:02:00,53.3,42.2,30.15,North,355,0.0,2.0,66,0.00,,,0.00,Wunderground v.1.15,2013-03-13 13:02:00,
2013-03-13 09:03:00,53.5,42.4,30.15,North,350,2.0,2.0,66,0.00,,,0.00,Wunderground v.1.15,2013-03-13 13:03:00,
2013-03-13 09:05:00,53.6,42.5,30.15,NNW,329,1.0,6.0,66,0.00,,,0.00,Wunderground v.1.15,2013-03-13 13:05:00,
2013-03-13 09:06:00,53.8,42.7,30.15,NNE,19,2.0,6.0,66,0.00,,,0.00,Wunderground v.1.15,2013-03-13 13:06:00,
2013-03-13 09:07:00,53.9,42.4,30.15,NNE,15,0.0,6.0,65,0.00,,,0.00,Wunderground v.1.15,2013-03-13 13:07:00,
2013-03-13 09:08:00,54.1,42.6,30.15,WNW,300,5.0,6.0,65,0.00,,,0.00,Wunderground v.1.15,2013-03-13 13:08:00,
2013-03-13 09:10:00,54.1,42.2,30.15,North,360,1.0,2.0,64,0.00,,,0.00,Wunderground v.1.15,2013-03-13 13:10:00,
2013-03-13 09:11:00,54.1,42.6,30.16,North,360,2.0,2.0,65,0.00,,,0.00,Wunderground v.1.15,2013-03-13 13:11:00,
2013-03-13 09:13:00,54.2,42.3,30.15,NNW,333,0.0,4.0,64,0.00,,,0.00,Wunderground v.1.15,2013-03-13 13:13:00,
2013-03-13 09:15:00,54.5,42.6,30.15,North,5,4.0,5.0,64,0.00,,,0.00,Wunderground v.1.15,2013-03-13 13:15:00,
2013-03-13 09:16:00,54.5,42.2,30.15,WSW,250,5.0,6.0,63,0.00,,,0.00,Wunderground v.1.15,2013-03-13 13:16:00,
2013-03-13 09:18:00,54.8,42.4,30.15,North,355,0.0,6.0,63,0.00,,,0.00,Wunderground v.1.15,2013-03-13 13:18:00,
2013-03-13 09:20:00,55.0,42.2,30.15,North,355,1.0,2.0,62,0.00,,,0.00,Wunderground v.1.15,2013-03-13 13:20:00,
2013-03-13 09:21:00,55.1,42.3,30.15,North,355,0.0,2.0,62,0.00,,,0.00,Wunderground v.1.15,2013-03-13 13:21:00,
2013-03-13 09:22:00,55.1,42.3,30.15,NE,39,1.0,2.0,62,0.00,,,0.00,Wunderground v.1.15,2013-03-13 13:22:00,
2013-03-13 09:24:00,55.3,42.1,30.15,NNW,333,0.0,5.0,61,0.00,,,0.00,Wunderground v.1.15,2013-03-13 13:24:00,
2013-03-13 09:25:00,55.4,42.2,30.15,NNW,341,3.0,8.0,61,0.00,,,0.00,Wunderground v.1.15,2013-03-13 13:25:00,
2013-03-13 09:27:00,55.4,41.7,30.15,NNW,336,1.0,8.0,60,0.00,,,0.00,Wunderground v.1.15,2013-03-13 13:27:00,
2013-03-13 09:29:00,55.7,42.0,30.15,North,350,0.0,8.0,60,0.00,,,0.00,Wunderground v.1.15,2013-03-13 13:29:00,
2013-03-13 09:30:00,55.7,41.6,30.15,NW,326,7.0,7.0,59,0.00,,,0.00,Wunderground v.1.15,2013-03-13 13:30:00,
2013-03-13 09:32:00,55.9,41.3,30.15,NE,34,7.0,7.0,58,0.00,,,0.00,Wunderground v.1.15,2013-03-13 13:32:00,
2013-03-13 09:33:00,55.9,40.9,30.15,ENE,61,0.0,7.0,57,0.00,,,0.00,Wunderground v.1.15,2013-03-13 13:33:00,
2013-03-13 09:34:00,56.0,41.4,30.15,North,355,5.0,10.0,58,0.00,,,0.00,Wunderground v.1.15,2013-03-13 13:34:00,
2013-03-13 09:35:00,56.0,41.0,30.15,NNW,336,1.0,10.0,57,0.00,,,0.00,Wunderground v.1.15,2013-03-13 13:35:00,
2013-03-13 09:37:00,56.3,41.3,30.15,NW,311,5.0,11.0,57,0.00,,,0.00,Wunderground v.1.15,2013-03-13 13:37:00,
2013-03-13 09:38:00,56.3,40.8,30.15,North,5,6.0,11.0,56,0.00,,,0.00,Wunderground v.1.15,2013-03-13 13:38:00,
2013-03-13 09:39:00,56.3,40.8,30.15,ENE,65,0.0,11.0,56,0.00,,,0.00,Wunderground v.1.15,2013-03-13 13:39:00,
2013-03-13 09:40:00,56.5,41.0,30.15,North,360,1.0,3.0,56,0.00,,,0.00,Wunderground v.1.15,2013-03-13 13:40:00,
2013-03-13 09:42:00,56.6,41.5,30.15,NNE,13,5.0,6.0,57,0.00,,,0.00,Wunderground v.1.15,2013-03-13 13:42:00,
2013-03-13 09:43:00,56.6,41.1,30.15,NNW,339,0.0,6.0,56,0.00,,,0.00,Wunderground v.1.15,2013-03-13 13:43:00,
2013-03-13 09:45:00,56.7,41.2,30.15,North,5,1.0,6.0,56,0.00,,,0.00,Wunderground v.1.15,2013-03-13 13:45:00,
2013-03-13 09:46:00,56.7,41.2,30.15,East,81,1.0,6.0,56,0.00,,,0.00,Wunderground v.1.15,2013-03-13 13:46:00,
2013-03-13 09:47:00,56.9,40.9,30.15,North,355,0.0,6.0,55,0.00,,,0.00,Wunderground v.1.15,2013-03-13 13:47:00,
2013-03-13 09:48:00,57.0,41.4,30.15,NNW,331,7.0,8.0,56,0.00,,,0.00,Wunderground v.1.15,2013-03-13 13:48:00,
2013-03-13 09:51:00,57.2,40.2,30.16,NNW,338,6.0,8.0,53,0.00,,,0.00,Wunderground v.1.15,2013-03-13 13:51:00,
2013-03-13 09:53:00,57.2,40.7,30.15,NNW,337,5.0,8.0,54,0.00,,,0.00,Wunderground v.1.15,2013-03-13 13:53:00,
2013-03-13 09:56:00,57.3,40.8,30.16,NNE,32,2.0,8.0,54,0.00,,,0.00,Wunderground v.1.15,2013-03-13 13:56:00,
2013-03-13 09:57:00,57.6,41.1,30.15,North,10,1.0,8.0,54,0.00,,,0.00,Wunderground v.1.15,2013-03-13 13:57:00,
2013-03-13 09:58:00,58.0,41.0,30.15,NNE,15,0.0,8.0,53,0.00,,,0.00,Wunderground v.1.15,2013-03-13 13:58:00,
2013-03-13 09:59:00,58.0,41.0,30.15,NE,44,1.0,8.0,53,0.00,,,0.00,Wunderground v.1.15,2013-03-13 13:59:00,
2013-03-13 10:01:00,58.1,40.6,30.15,NW,321,4.0,4.0,52,0.00,,,0.00,Wunderground v.1.15,2013-03-13 14:01:00,
2013-03-13 10:03:00,58.3,40.2,30.16,North,9,1.0,7.0,51,0.00,,,0.00,Wunderground v.1.15,2013-03-13 14:03:00,
2013-03-13 10:04:00,58.3,40.2,30.16,North,10,0.0,7.0,51,0.00,,,0.00,Wunderground v.1.15,2013-03-13 14:04:00,
2013-03-13 10:06:00,58.6,41.0,30.16,SSW,195,1.0,7.0,52,0.00,,,0.00,Wunderground v.1.15,2013-03-13 14:06:00,
2013-03-13 10:09:00,58.7,40.1,30.16,NE,51,2.0,10.0,50,0.00,,,0.00,Wunderground v.1.15,2013-03-13 14:09:00,
2013-03-13 10:11:00,58.9,40.3,30.16,North,11,1.0,2.0,50,0.00,,,0.00,Wunderground v.1.15,2013-03-13 14:11:00,
2013-03-13 10:14:00,59.2,40.6,30.16,NNW,342,1.0,3.0,50,0.00,,,0.00,Wunderground v.1.15,2013-03-13 14:14:00,
2013-03-13 10:16:00,59.3,39.1,30.16,North,360,2.0,7.0,47,0.00,,,0.00,Wunderground v.1.15,2013-03-13 14:16:00,
2013-03-13 10:19:00,59.3,39.1,30.16,NNE,27,1.0,9.0,47,0.00,,,0.00,Wunderground v.1.15,2013-03-13 14:19:00,
2013-03-13 10:22:00,59.8,40.1,30.16,NE,48,6.0,6.0,48,0.00,,,0.00,Wunderground v.1.15,2013-03-13 14:22:00,
2013-03-13 10:24:00,59.9,39.1,30.16,NNW,344,7.0,7.0,46,0.00,,,0.00,Wunderground v.1.15,2013-03-13 14:24:00,
2013-03-13 10:25:00,59.9,39.1,30.16,WNW,303,5.0,9.0,46,0.00,,,0.00,Wunderground v.1.15,2013-03-13 14:25:00,
2013-03-13 10:26:00,60.1,39.8,30.16,North,349,1.0,9.0,47,0.00,,,0.00,Wunderground v.1.15,2013-03-13 14:26:00,
2013-03-13 10:27:00,60.2,39.9,30.16,North,5,1.0,9.0,47,0.00,,,0.00,Wunderground v.1.15,2013-03-13 14:27:00,
2013-03-13 10:29:00,60.7,40.3,30.16,WNW,290,7.0,9.0,47,0.00,,,0.00,Wunderground v.1.15,2013-03-13 14:29:00,
2013-03-13 10:30:00,60.7,38.6,30.16,NW,315,7.0,7.0,44,0.00,,,0.00,Wunderground v.1.15,2013-03-13 14:30:00,
2013-03-13 10:32:00,60.7,39.2,30.16,NE,53,1.0,7.0,45,0.00,,,0.00,Wunderground v.1.15,2013-03-13 14:32:00,
2013-03-13 10:34:00,60.7,38.6,30.16,NNW,339,5.0,9.0,44,0.00,,,0.00,Wunderground v.1.15,2013-03-13 14:34:00,
2013-03-13 10:35:00,60.7,38.6,30.16,North,351,1.0,9.0,44,0.00,,,0.00,Wunderground v.1.15,2013-03-13 14:35:00,
2013-03-13 10:37:00,60.9,38.8,30.16,NNW,336,1.0,9.0,44,0.00,,,0.00,Wunderground v.1.15,2013-03-13 14:37:00,
2013-03-13 10:40:00,61.3,39.2,30.16,NNW,342,7.0,9.0,44,0.00,,,0.00,Wunderground v.1.15,2013-03-13 14:40:00,
2013-03-13 10:42:00,61.3,38.0,30.16,NNW,348,0.0,10.0,42,0.00,,,0.00,Wunderground v.1.15,2013-03-13 14:42:00,
2013-03-13 10:46:00,61.6,38.3,30.16,NNW,337,4.0,10.0,42,0.00,,,0.00,Wunderground v.1.15,2013-03-13 14:46:00,
2013-03-13 10:47:00,61.8,38.4,30.16,NNW,331,1.0,10.0,42,0.00,,,0.00,Wunderground v.1.15,2013-03-13 14:47:00,
2013-03-13 10:51:00,62.1,38.1,30.16,NNW,347,4.0,4.0,41,0.00,,,0.00,Wunderground v.1.15,2013-03-13 14:51:00,
2013-03-13 10:53:00,62.4,37.7,30.16,West,275,4.0,9.0,40,0.00,,,0.00,Wunderground v.1.15,2013-03-13 14:53:00,
2013-03-13 10:57:00,62.9,37.5,30.17,NE,45,3.0,9.0,39,0.00,,,0.00,Wunderground v.1.15,2013-03-13 14:57:00,
2013-03-13 10:58:00,62.9,36.2,30.16,NNW,340,3.0,9.0,37,0.00,,,0.00,Wunderground v.1.15,2013-03-13 14:58:00,
2013-03-13 11:02:00,63.4,37.3,30.16,NNW,342,1.0,8.0,38,0.00,,,0.00,Wunderground v.1.15,2013-03-13 15:02:00,
2013-03-13 11:03:00,63.7,37.6,30.16,NNW,346,2.0,8.0,38,0.00,,,0.00,Wunderground v.1.15,2013-03-13 15:03:00,
2013-03-13 11:08:00,64.0,37.2,30.17,NE,44,0.0,8.0,37,0.00,,,0.00,Wunderground v.1.15,2013-03-13 15:08:00,
2013-03-13 11:13:00,64.5,36.9,30.17,NE,48,1.0,7.0,36,0.00,,,0.00,Wunderground v.1.15,2013-03-13 15:13:00,
2013-03-13 11:14:00,64.7,36.4,30.17,NNE,19,4.0,8.0,35,0.00,,,0.00,Wunderground v.1.15,2013-03-13 15:14:00,
2013-03-13 11:18:00,65.2,34.6,30.17,NNW,331,1.0,8.0,32,0.00,,,0.00,Wunderground v.1.15,2013-03-13 15:18:00,
2013-03-13 11:19:00,65.2,34.6,30.17,NNW,331,1.0,8.0,32,0.00,,,0.00,Wunderground v.1.15,2013-03-13 15:19:00,
2013-03-13 11:20:00,65.3,33.9,30.17,NE,49,0.0,8.0,31,0.00,,,0.00,Wunderground v.1.15,2013-03-13 15:20:00,
2013-03-13 11:23:00,65.3,34.7,30.17,NE,40,1.0,8.0,32,0.00,,,0.00,Wunderground v.1.15,2013-03-13 15:23:00,
2013-03-13 11:24:00,65.3,34.7,30.17,NNE,26,1.0,8.0,32,0.00,,,0.00,Wunderground v.1.15,2013-03-13 15:24:00,
2013-03-13 11:25:00,65.5,34.8,30.17,NNE,20,2.0,8.0,32,0.00,,,0.00,Wunderground v.1.15,2013-03-13 15:25:00,
2013-03-13 11:29:00,66.3,37.1,30.17,WNW,288,5.0,8.0,34,0.00,,,0.00,Wunderground v.1.15,2013-03-13 15:29:00,
2013-03-13 11:30:00,66.4,34.0,30.17,NNW,340,4.0,11.0,30,0.00,,,0.00,Wunderground v.1.15,2013-03-13 15:30:00,
2013-03-13 11:34:00,66.4,33.2,30.16,ENE,62,3.0,8.0,29,0.00,,,0.00,Wunderground v.1.15,2013-03-13 15:34:00,
2013-03-13 11:35:00,66.4,33.2,30.16,NNW,339,4.0,8.0,29,0.00,,,0.00,Wunderground v.1.15,2013-03-13 15:35:00,
2013-03-13 11:36:00,66.3,32.2,30.16,NNW,345,4.0,8.0,28,0.00,,,0.00,Wunderground v.1.15,2013-03-13 15:36:00,
2013-03-13 11:39:00,66.8,35.2,30.17,NNW,333,10.0,11.0,31,0.00,,,0.00,Wunderground v.1.15,2013-03-13 15:39:00,
2013-03-13 11:40:00,66.8,32.6,30.16,NW,321,4.0,11.0,28,0.00,,,0.00,Wunderground v.1.15,2013-03-13 15:40:00,
2013-03-13 11:42:00,66.8,32.6,30.16,NE,49,0.0,6.0,28,0.00,,,0.00,Wunderground v.1.15,2013-03-13 15:42:00,
2013-03-13 11:43:00,66.9,32.7,30.16,NE,47,0.0,6.0,28,0.00,,,0.00,Wunderground v.1.15,2013-03-13 15:43:00,
2013-03-13 11:44:00,66.9,32.7,30.16,NW,304,7.0,7.0,28,0.00,,,0.00,Wunderground v.1.15,2013-03-13 15:44:00,
2013-03-13 11:45:00,66.9,31.8,30.16,North,355,2.0,11.0,27,0.00,,,0.00,Wunderground v.1.15,2013-03-13 15:45:00,
2013-03-13 11:47:00,67.4,35.7,30.16,NNE,19,0.0,11.0,31,0.00,,,0.00,Wunderground v.1.15,2013-03-13 15:47:00,
2013-03-13 11:49:00,67.8,33.5,30.16,WNW,293,5.0,11.0,28,0.00,,,0.00,Wunderground v.1.15,2013-03-13 15:49:00,
2013-03-13 11:50:00,67.9,33.6,30.16,NNW,336,2.0,4.0,28,0.00,,,0.00,Wunderground v.1.15,2013-03-13 15:50:00,
2013-03-13 11:53:00,68.3,33.9,30.16,NE,55,1.0,6.0,28,0.00,,,0.00,Wunderground v.1.15,2013-03-13 15:53:00,
2013-03-13 11:54:00,68.1,32.8,30.16,NNW,333,4.0,6.0,27,0.00,,,0.00,Wunderground v.1.15,2013-03-13 15:54:00,
2013-03-13 11:56:00,68.1,32.8,30.16,NNW,343,3.0,6.0,27,0.00,,,0.00,Wunderground v.1.15,2013-03-13 15:56:00,
2013-03-13 11:58:00,68.1,31.9,30.16,North,349,5.0,6.0,26,0.00,,,0.00,Wunderground v.1.15,2013-03-13 15:58:00,
2013-03-13 11:59:00,68.3,32.1,30.16,NNE,13,0.0,6.0,26,0.00,,,0.00,Wunderground v.1.15,2013-03-13 15:59:00,
2013-03-13 12:01:00,68.4,33.1,30.16,NE,44,0.0,8.0,27,0.00,,,0.00,Wunderground v.1.15,2013-03-13 16:01:00,
2013-03-13 12:03:00,68.3,32.1,30.16,NE,44,0.0,8.0,26,0.00,,,0.00,Wunderground v.1.15,2013-03-13 16:03:00,
2013-03-13 12:04:00,68.3,32.1,30.17,NNW,332,6.0,8.0,26,0.00,,,0.00,Wunderground v.1.15,2013-03-13 16:04:00,
2013-03-13 12:05:00,68.3,32.1,30.17,WNW,297,2.0,8.0,26,0.00,,,0.00,Wunderground v.1.15,2013-03-13 16:05:00,
2013-03-13 12:06:00,68.4,34.0,30.17,WNW,288,4.0,11.0,28,0.00,,,0.00,Wunderground v.1.15,2013-03-13 16:06:00,
2013-03-13 12:08:00,68.3,32.1,30.17,NE,56,5.0,12.0,26,0.00,,,0.00,Wunderground v.1.15,2013-03-13 16:08:00,
2013-03-13 12:10:00,68.4,34.0,30.17,NE,48,2.0,3.0,28,0.00,,,0.00,Wunderground v.1.15,2013-03-13 16:10:00,
2013-03-13 12:12:00,68.6,32.3,30.16,SSW,198,5.0,9.0,26,0.00,,,0.00,Wunderground v.1.15,2013-03-13 16:12:00,
2013-03-13 12:13:00,68.4,32.1,30.17,NNW,342,2.0,9.0,26,0.00,,,0.00,Wunderground v.1.15,2013-03-13 16:13:00,
2013-03-13 12:15:00,68.4,33.1,30.17,NNW,348,0.0,9.0,27,0.00,,,0.00,Wunderground v.1.15,2013-03-13 16:15:00,
2013-03-13 12:17:00,69.4,34.9,30.17,North,351,1.0,9.0,28,0.00,,,0.00,Wunderground v.1.15,2013-03-13 16:17:00,
2013-03-13 12:19:00,69.6,35.0,30.16,NNW,348,1.0,9.0,28,0.00,,,0.00,Wunderground v.1.15,2013-03-13 16:19:00,
2013-03-13 12:20:00,70.1,32.6,30.17,WNW,298,7.0,7.0,25,0.00,,,0.00,Wunderground v.1.15,2013-03-13 16:20:00,
2013-03-13 12:23:00,69.6,34.1,30.17,NW,306,4.0,7.0,27,0.00,,,0.00,Wunderground v.1.15,2013-03-13 16:23:00,
2013-03-13 12:24:00,69.4,33.0,30.17,North,355,5.0,7.0,26,0.00,,,0.00,Wunderground v.1.15,2013-03-13 16:24:00,
2013-03-13 12:25:00,69.3,33.9,30.17,North,355,4.0,11.0,27,0.00,,,0.00,Wunderground v.1.15,2013-03-13 16:25:00,
2013-03-13 12:28:00,69.1,32.7,30.17,ENE,74,4.0,11.0,26,0.00,,,0.00,Wunderground v.1.15,2013-03-13 16:28:00,
2013-03-13 12:29:00,69.1,32.7,30.17,NNW,348,1.0,11.0,26,0.00,,,0.00,Wunderground v.1.15,2013-03-13 16:29:00,
2013-03-13 12:30:00,68.9,32.6,30.17,NNW,342,7.0,13.0,26,0.00,,,0.00,Wunderground v.1.15,2013-03-13 16:30:00,
2013-03-13 12:31:00,68.9,32.6,30.17,NNW,338,3.0,13.0,26,0.00,,,0.00,Wunderground v.1.15,2013-03-13 16:31:00,
2013-03-13 12:33:00,68.9,32.6,30.17,NE,34,2.0,13.0,26,0.00,,,0.00,Wunderground v.1.15,2013-03-13 16:33:00,
2013-03-13 12:34:00,69.1,33.7,30.17,NNE,22,0.0,13.0,27,0.00,,,0.00,Wunderground v.1.15,2013-03-13 16:34:00,
2013-03-13 12:35:00,69.4,35.7,30.17,NW,321,5.0,13.0,29,0.00,,,0.00,Wunderground v.1.15,2013-03-13 16:35:00,
2013-03-13 12:37:00,69.4,33.9,30.17,WNW,286,7.0,13.0,27,0.00,,,0.00,Wunderground v.1.15,2013-03-13 16:37:00,
2013-03-13 12:39:00,69.3,31.9,30.17,NNW,342,3.0,13.0,25,0.00,,,0.00,Wunderground v.1.15,2013-03-13 16:39:00,
2013-03-13 12:40:00,69.4,33.0,30.17,NNW,331,6.0,6.0,26,0.00,,,0.00,Wunderground v.1.15,2013-03-13 16:40:00,
2013-03-13 12:42:00,69.4,33.9,30.17,NE,51,3.0,9.0,27,0.00,,,0.00,Wunderground v.1.15,2013-03-13 16:42:00,
2013-03-13 12:45:00,69.6,33.2,30.17,NNW,329,4.0,10.0,26,0.00,,,0.00,Wunderground v.1.15,2013-03-13 16:45:00,
2013-03-13 12:47:00,69.6,33.2,30.17,NW,310,0.0,10.0,26,0.00,,,0.00,Wunderground v.1.15,2013-03-13 16:47:00,
2013-03-13 12:48:00,69.6,33.2,30.17,NNE,26,4.0,10.0,26,0.00,,,0.00,Wunderground v.1.15,2013-03-13 16:48:00,
2013-03-13 12:50:00,69.9,33.4,30.17,NNW,345,4.0,10.0,26,0.00,,,0.00,Wunderground v.1.15,2013-03-13 16:50:00,
2013-03-13 12:51:00,69.9,34.4,30.17,NNW,340,5.0,5.0,27,0.00,,,0.00,Wunderground v.1.15,2013-03-13 16:51:00,
2013-03-13 12:53:00,70.4,35.7,30.17,ENE,61,2.0,7.0,28,0.00,,,0.00,Wunderground v.1.15,2013-03-13 16:53:00,
2013-03-13 12:55:00,70.6,34.0,30.17,West,274,3.0,7.0,26,0.00,,,0.00,Wunderground v.1.15,2013-03-13 16:55:00,
2013-03-13 12:56:00,70.6,34.0,30.17,NW,321,2.0,7.0,26,0.00,,,0.00,Wunderground v.1.15,2013-03-13 16:56:00,
2013-03-13 12:58:00,70.8,33.2,30.16,North,350,3.0,7.0,25,0.00,,,0.00,Wunderground v.1.15,2013-03-13 16:58:00,
2013-03-13 12:59:00,70.8,33.2,30.17,NNE,16,1.0,7.0,25,0.00,,,0.00,Wunderground v.1.15,2013-03-13 16:59:00,
2013-03-13 13:00:00,71.1,34.5,30.16,ENE,58,4.0,4.0,26,0.00,,,0.00,Wunderground v.1.15,2013-03-13 17:00:00,
2013-03-13 13:01:00,71.1,34.5,30.17,ENE,59,0.0,5.0,26,0.00,,,0.00,Wunderground v.1.15,2013-03-13 17:01:00,
2013-03-13 13:04:00,70.9,33.3,30.16,North,355,5.0,12.0,25,0.00,,,0.00,Wunderground v.1.15,2013-03-13 17:04:00,
2013-03-13 13:06:00,70.8,33.2,30.16,NNW,344,6.0,12.0,25,0.00,,,0.00,Wunderground v.1.15,2013-03-13 17:06:00,
2013-03-13 13:07:00,70.6,33.0,30.16,NW,323,9.0,12.0,25,0.00,,,0.00,Wunderground v.1.15,2013-03-13 17:07:00,
2013-03-13 13:09:00,70.8,34.2,30.16,NNE,15,0.0,12.0,26,0.00,,,0.00,Wunderground v.1.15,2013-03-13 17:09:00,
2013-03-13 13:12:00,70.9,33.3,30.16,NE,51,4.0,11.0,25,0.00,,,0.00,Wunderground v.1.15,2013-03-13 17:12:00,
2013-03-13 13:14:00,71.8,35.0,30.16,NE,44,1.0,11.0,26,0.00,,,0.00,Wunderground v.1.15,2013-03-13 17:14:00,
2013-03-13 13:17:00,72.0,34.2,30.15,NE,50,6.0,11.0,25,0.00,,,0.00,Wunderground v.1.15,2013-03-13 17:17:00,
2013-03-13 13:19:00,72.3,36.4,30.16,NNW,342,4.0,11.0,27,0.00,,,0.00,Wunderground v.1.15,2013-03-13 17:19:00,
2013-03-13 13:20:00,72.3,34.5,30.16,NNW,344,2.0,3.0,25,0.00,,,0.00,Wunderground v.1.15,2013-03-13 17:20:00,
2013-03-13 13:22:00,72.0,33.2,30.16,NNW,347,1.0,7.0,24,0.00,,,0.00,Wunderground v.1.15,2013-03-13 17:22:00,
2013-03-13 13:23:00,71.6,33.9,30.16,NNW,346,6.0,7.0,25,0.00,,,0.00,Wunderground v.1.15,2013-03-13 17:23:00,
2013-03-13 13:25:00,71.1,32.5,30.16,NNW,336,1.0,9.0,24,0.00,,,0.00,Wunderground v.1.15,2013-03-13 17:25:00,
2013-03-13 13:28:00,71.3,34.6,30.16,NNE,28,3.0,9.0,26,0.00,,,0.00,Wunderground v.1.15,2013-03-13 17:28:00,
2013-03-13 13:30:00,72.0,36.2,30.16,North,349,5.0,7.0,27,0.00,,,0.00,Wunderground v.1.15,2013-03-13 17:30:00,
2013-03-13 13:31:00,72.0,36.2,30.16,NW,309,5.0,7.0,27,0.00,,,0.00,Wunderground v.1.15,2013-03-13 17:31:00,
2013-03-13 13:33:00,72.3,32.4,30.16,NNW,345,4.0,7.0,23,0.00,,,0.00,Wunderground v.1.15,2013-03-13 17:33:00,
2013-03-13 13:34:00,72.3,33.5,30.15,NNE,24,0.0,7.0,24,0.00,,,0.00,Wunderground v.1.15,2013-03-13 17:34:00,
2013-03-13 13:36:00,72.1,33.3,30.15,NW,314,2.0,7.0,24,0.00,,,0.00,Wunderground v.1.15,2013-03-13 17:36:00,
2013-03-13 13:37:00,72.0,33.2,30.15,NNW,344,0.0,7.0,24,0.00,,,0.00,Wunderground v.1.15,2013-03-13 17:37:00,
2013-03-13 13:38:00,72.5,34.7,30.15,NNW,345,3.0,7.0,25,0.00,,,0.00,Wunderground v.1.15,2013-03-13 17:38:00,
2013-03-13 13:39:00,72.7,34.8,30.15,NNW,331,2.0,7.0,25,0.00,,,0.00,Wunderground v.1.15,2013-03-13 17:39:00,
2013-03-13 13:41:00,72.8,34.9,30.15,NW,317,8.0,8.0,25,0.00,,,0.00,Wunderground v.1.15,2013-03-13 17:41:00,
2013-03-13 13:42:00,72.5,32.6,30.15,NNW,339,4.0,8.0,23,0.00,,,0.00,Wunderground v.1.15,2013-03-13 17:42:00,
2013-03-13 13:43:00,72.5,34.7,30.15,East,82,5.0,8.0,25,0.00,,,0.00,Wunderground v.1.15,2013-03-13 17:43:00,
2013-03-13 13:45:00,72.5,34.7,30.15,ENE,69,1.0,8.0,25,0.00,,,0.00,Wunderground v.1.15,2013-03-13 17:45:00,
2013-03-13 13:46:00,72.3,33.5,30.15,NNW,330,5.0,8.0,24,0.00,,,0.00,Wunderground v.1.15,2013-03-13 17:46:00,
2013-03-13 13:47:00,72.3,34.5,30.15,WNW,297,2.0,8.0,25,0.00,,,0.00,Wunderground v.1.15,2013-03-13 17:47:00,
2013-03-13 13:49:00,72.3,33.5,30.15,West,275,5.0,8.0,24,0.00,,,0.00,Wunderground v.1.15,2013-03-13 17:49:00,
2013-03-13 13:50:00,72.3,33.5,30.15,North,9,3.0,4.0,24,0.00,,,0.00,Wunderground v.1.15,2013-03-13 17:50:00,
2013-03-13 13:52:00,72.5,33.6,30.15,NNW,327,4.0,8.0,24,0.00,,,0.00,Wunderground v.1.15,2013-03-13 17:52:00,
2013-03-13 13:54:00,72.5,33.6,30.15,NNW,332,4.0,10.0,24,0.00,,,0.00,Wunderground v.1.15,2013-03-13 17:54:00,
2013-03-13 13:55:00,72.5,34.7,30.14,ENE,57,2.0,10.0,25,0.00,,,0.00,Wunderground v.1.15,2013-03-13 17:55:00,
2013-03-13 13:56:00,72.5,33.6,30.15,NNE,28,1.0,10.0,24,0.00,,,0.00,Wunderground v.1.15,2013-03-13 17:56:00,
2013-03-13 13:58:00,72.1,33.3,30.14,NE,56,1.0,10.0,24,0.00,,,0.00,Wunderground v.1.15,2013-03-13 17:58:00,
2013-03-13 13:59:00,72.3,34.5,30.14,NE,46,0.0,10.0,25,0.00,,,0.00,Wunderground v.1.15,2013-03-13 17:59:00,
2013-03-13 14:00:00,72.8,37.8,30.14,NNE,22,1.0,3.0,28,0.00,,,0.00,Wunderground v.1.15,2013-03-13 18:00:00,
2013-03-13 14:01:00,72.8,33.9,30.14,North,355,0.0,4.0,24,0.00,,,0.00,Wunderground v.1.15,2013-03-13 18:01:00,
2013-03-13 14:03:00,73.2,37.2,30.14,North,355,5.0,5.0,27,0.00,,,0.00,Wunderground v.1.15,2013-03-13 18:03:00,
2013-03-13 14:04:00,73.3,35.3,30.14,NNW,344,0.0,5.0,25,0.00,,,0.00,Wunderground v.1.15,2013-03-13 18:04:00,
2013-03-13 14:07:00,73.2,35.2,30.14,ENE,57,2.0,6.0,25,0.00,,,0.00,Wunderground v.1.15,2013-03-13 18:07:00,
2013-03-13 14:08:00,73.2,35.2,30.14,NE,37,1.0,6.0,25,0.00,,,0.00,Wunderground v.1.15,2013-03-13 18:08:00,
2013-03-13 14:09:00,73.3,35.3,30.14,NE,36,0.0,6.0,25,0.00,,,0.00,Wunderground v.1.15,2013-03-13 18:09:00,
2013-03-13 14:12:00,73.7,35.7,30.14,NE,37,4.0,6.0,25,0.00,,,0.00,Wunderground v.1.15,2013-03-13 18:12:00,
2013-03-13 14:13:00,73.7,35.7,30.14,North,355,6.0,7.0,25,0.00,,,0.00,Wunderground v.1.15,2013-03-13 18:13:00,
2013-03-13 14:14:00,73.7,34.6,30.14,NNW,338,0.0,7.0,24,0.00,,,0.00,Wunderground v.1.15,2013-03-13 18:14:00,
2013-03-13 14:17:00,73.2,34.2,30.14,East,94,1.0,9.0,24,0.00,,,0.00,Wunderground v.1.15,2013-03-13 18:17:00,
2013-03-13 14:18:00,73.2,35.2,30.13,ENE,57,1.0,9.0,25,0.00,,,0.00,Wunderground v.1.15,2013-03-13 18:18:00,
2013-03-13 14:19:00,73.2,35.2,30.13,NNW,348,0.0,9.0,25,0.00,,,0.00,Wunderground v.1.15,2013-03-13 18:19:00,
2013-03-13 14:23:00,73.9,35.8,30.13,NNE,17,3.0,9.0,25,0.00,,,0.00,Wunderground v.1.15,2013-03-13 18:23:00,
2013-03-13 14:24:00,73.7,34.6,30.13,North,355,5.0,9.0,24,0.00,,,0.00,Wunderground v.1.15,2013-03-13 18:24:00,
2013-03-13 14:28:00,73.3,35.3,30.13,NE,42,0.0,9.0,25,0.00,,,0.00,Wunderground v.1.15,2013-03-13 18:28:00,
2013-03-13 14:30:00,73.2,33.2,30.12,NNW,348,2.0,9.0,23,0.00,,,0.00,Wunderground v.1.15,2013-03-13 18:30:00,
2013-03-13 14:33:00,73.5,34.5,30.12,NW,304,0.0,6.0,24,0.00,,,0.00,Wunderground v.1.15,2013-03-13 18:33:00,
2013-03-13 14:35:00,73.9,34.8,30.12,WNW,292,5.0,7.0,24,0.00,,,0.00,Wunderground v.1.15,2013-03-13 18:35:00,
2013-03-13 14:38:00,73.3,34.3,30.12,ENE,58,0.0,8.0,24,0.00,,,0.00,Wunderground v.1.15,2013-03-13 18:38:00,
2013-03-13 14:39:00,73.5,36.5,30.12,NW,321,6.0,8.0,26,0.00,,,0.00,Wunderground v.1.15,2013-03-13 18:39:00,
2013-03-13 14:40:00,73.5,35.5,30.12,NNW,334,0.0,4.0,25,0.00,,,0.00,Wunderground v.1.15,2013-03-13 18:40:00,
2013-03-13 14:43:00,73.7,34.6,30.12,NNE,30,4.0,6.0,24,0.00,,,0.00,Wunderground v.1.15,2013-03-13 18:43:00,
2013-03-13 14:44:00,73.7,35.7,30.12,NNE,23,0.0,7.0,25,0.00,,,0.00,Wunderground v.1.15,2013-03-13 18:44:00,
2013-03-13 14:47:00,73.5,35.5,30.12,NNW,336,1.0,7.0,25,0.00,,,0.00,Wunderground v.1.15,2013-03-13 18:47:00,
2013-03-13 14:48:00,73.5,36.5,30.12,WNW,290,4.0,7.0,26,0.00,,,0.00,Wunderground v.1.15,2013-03-13 18:48:00,
2013-03-13 14:50:00,74.0,35.9,30.12,NNW,342,5.0,7.0,25,0.00,,,0.00,Wunderground v.1.15,2013-03-13 18:50:00,
2013-03-13 14:52:00,74.6,36.4,30.11,NW,323,7.0,7.0,25,0.00,,,0.00,Wunderground v.1.15,2013-03-13 18:52:00,
2013-03-13 14:53:00,74.4,35.2,30.11,NNE,22,1.0,7.0,24,0.00,,,0.00,Wunderground v.1.15,2013-03-13 18:53:00,
2013-03-13 14:54:00,74.6,35.4,30.11,NE,49,3.0,7.0,24,0.00,,,0.00,Wunderground v.1.15,2013-03-13 18:54:00,
2013-03-13 14:55:00,74.4,34.2,30.11,ENE,67,2.0,7.0,23,0.00,,,0.00,Wunderground v.1.15,2013-03-13 18:55:00,
2013-03-13 14:57:00,74.4,34.2,30.11,North,355,1.0,8.0,23,0.00,,,0.00,Wunderground v.1.15,2013-03-13 18:57:00,
2013-03-13 14:58:00,74.7,36.5,30.11,NE,54,0.0,8.0,25,0.00,,,0.00,Wunderground v.1.15,2013-03-13 18:58:00,
2013-03-13 14:59:00,74.9,36.7,30.11,NNW,344,4.0,8.0,25,0.00,,,0.00,Wunderground v.1.15,2013-03-13 18:59:00,
2013-03-13 15:01:00,74.9,32.3,30.11,WNW,286,7.0,10.0,21,0.00,,,0.00,Wunderground v.1.15,2013-03-13 19:01:00,
2013-03-13 15:02:00,74.4,33.1,30.11,NNE,29,0.0,10.0,22,0.00,,,0.00,Wunderground v.1.15,2013-03-13 19:02:00,
2013-03-13 15:04:00,74.6,34.3,30.11,WNW,302,3.0,10.0,23,0.00,,,0.00,Wunderground v.1.15,2013-03-13 19:04:00,
2013-03-13 15:05:00,74.6,34.3,30.11,North,11,0.0,10.0,23,0.00,,,0.00,Wunderground v.1.15,2013-03-13 19:05:00,
2013-03-13 15:07:00,74.9,33.5,30.11,NNW,348,3.0,10.0,22,0.00,,,0.00,Wunderground v.1.15,2013-03-13 19:07:00,
2013-03-13 15:08:00,74.9,33.5,30.12,NE,39,2.0,10.0,22,0.00,,,0.00,Wunderground v.1.15,2013-03-13 19:08:00,
2013-03-13 15:10:00,74.6,33.2,30.11,NW,317,7.0,7.0,22,0.00,,,0.00,Wunderground v.1.15,2013-03-13 19:10:00,
2013-03-13 15:12:00,74.2,31.7,30.11,NE,40,1.0,14.0,21,0.00,,,0.00,Wunderground v.1.15,2013-03-13 19:12:00,
2013-03-13 15:14:00,74.2,31.7,30.11,NNE,26,0.0,14.0,21,0.00,,,0.00,Wunderground v.1.15,2013-03-13 19:14:00,
2013-03-13 15:15:00,74.4,31.9,30.11,NNW,328,5.0,14.0,21,0.00,,,0.00,Wunderground v.1.15,2013-03-13 19:15:00,
2013-03-13 15:18:00,74.4,33.1,30.11,NNE,17,6.0,14.0,22,0.00,,,0.00,Wunderground v.1.15,2013-03-13 19:18:00,
2013-03-13 15:19:00,74.0,31.6,30.11,NNW,333,5.0,14.0,21,0.00,,,0.00,Wunderground v.1.15,2013-03-13 19:19:00,
2013-03-13 15:20:00,74.0,31.6,30.11,NNW,346,2.0,4.0,21,0.00,,,0.00,Wunderground v.1.15,2013-03-13 19:20:00,
2013-03-13 15:23:00,74.2,32.9,30.11,North,5,6.0,8.0,22,0.00,,,0.00,Wunderground v.1.15,2013-03-13 19:23:00,
2013-03-13 15:24:00,74.4,34.2,30.11,North,349,2.0,8.0,23,0.00,,,0.00,Wunderground v.1.15,2013-03-13 19:24:00,
2013-03-13 15:25:00,74.4,31.9,30.11,North,351,1.0,8.0,21,0.00,,,0.00,Wunderground v.1.15,2013-03-13 19:25:00,
2013-03-13 15:27:00,74.2,30.5,30.11,NNW,346,0.0,8.0,20,0.00,,,0.00,Wunderground v.1.15,2013-03-13 19:27:00,
2013-03-13 15:29:00,74.0,31.6,30.11,NNW,333,1.0,8.0,21,0.00,,,0.00,Wunderground v.1.15,2013-03-13 19:29:00,
2013-03-13 15:32:00,74.0,31.6,30.11,West,265,7.0,7.0,21,0.00,,,0.00,Wunderground v.1.15,2013-03-13 19:32:00,
2013-03-13 15:34:00,73.9,31.5,30.10,NW,324,1.0,9.0,21,0.00,,,0.00,Wunderground v.1.15,2013-03-13 19:34:00,
2013-03-13 15:35:00,73.9,31.5,30.10,East,80,2.0,9.0,21,0.00,,,0.00,Wunderground v.1.15,2013-03-13 19:35:00,
2013-03-13 15:37:00,74.0,31.6,30.10,ENE,76,1.0,9.0,21,0.00,,,0.00,Wunderground v.1.15,2013-03-13 19:37:00,
2013-03-13 15:38:00,74.0,31.6,30.10,NNW,338,5.0,9.0,21,0.00,,,0.00,Wunderground v.1.15,2013-03-13 19:38:00,
2013-03-13 15:39:00,74.2,31.7,30.10,ENE,60,2.0,9.0,21,0.00,,,0.00,Wunderground v.1.15,2013-03-13 19:39:00,
2013-03-13 15:40:00,74.2,31.7,30.10,NE,35,0.0,2.0,21,0.00,,,0.00,Wunderground v.1.15,2013-03-13 19:40:00,
2013-03-13 15:42:00,74.2,31.7,30.10,ENE,59,0.0,2.0,21,0.00,,,0.00,Wunderground v.1.15,2013-03-13 19:42:00,
2013-03-13 15:43:00,74.2,31.7,30.09,NNE,19,0.0,7.0,21,0.00,,,0.00,Wunderground v.1.15,2013-03-13 19:43:00,
2013-03-13 15:45:00,74.6,33.2,30.09,WNW,284,2.0,7.0,22,0.00,,,0.00,Wunderground v.1.15,2013-03-13 19:45:00,
2013-03-13 15:47:00,74.9,34.6,30.09,NNW,344,2.0,7.0,23,0.00,,,0.00,Wunderground v.1.15,2013-03-13 19:47:00,
2013-03-13 15:48:00,75.1,30.0,30.10,North,5,4.0,9.0,19,0.00,,,0.00,Wunderground v.1.15,2013-03-13 19:48:00,
2013-03-13 15:50:00,74.9,29.8,30.10,WNW,289,7.0,9.0,19,0.00,,,0.00,Wunderground v.1.15,2013-03-13 19:50:00,
2013-03-13 15:52:00,74.6,30.9,30.09,NW,315,0.0,6.0,20,0.00,,,0.00,Wunderground v.1.15,2013-03-13 19:52:00,
2013-03-13 15:53:00,74.9,31.1,30.09,WSW,242,4.0,6.0,20,0.00,,,0.00,Wunderground v.1.15,2013-03-13 19:53:00,
2013-03-13 15:54:00,74.9,31.1,30.09,NE,46,4.0,6.0,20,0.00,,,0.00,Wunderground v.1.15,2013-03-13 19:54:00,
2013-03-13 15:55:00,75.1,31.3,30.09,North,9,0.0,6.0,20,0.00,,,0.00,Wunderground v.1.15,2013-03-13 19:55:00,
2013-03-13 15:57:00,75.1,31.3,30.09,NE,46,4.0,6.0,20,0.00,,,0.00,Wunderground v.1.15,2013-03-13 19:57:00,
2013-03-13 15:59:00,74.7,30.9,30.09,NNE,32,0.0,10.0,20,0.00,,,0.00,Wunderground v.1.15,2013-03-13 19:59:00,
2013-03-13 16:00:00,74.6,29.6,30.09,WNW,299,0.0,10.0,19,0.00,,,0.00,Wunderground v.1.15,2013-03-13 20:00:00,
2013-03-13 16:02:00,74.6,30.9,30.09,ENE,62,0.0,5.0,20,0.00,,,0.00,Wunderground v.1.15,2013-03-13 20:02:00,
2013-03-13 16:04:00,74.9,32.3,30.09,North,9,3.0,5.0,21,0.00,,,0.00,Wunderground v.1.15,2013-03-13 20:04:00,
2013-03-13 16:05:00,75.1,32.5,30.09,North,355,2.0,5.0,21,0.00,,,0.00,Wunderground v.1.15,2013-03-13 20:05:00,
2013-03-13 16:07:00,75.1,32.5,30.08,NW,323,0.0,7.0,21,0.00,,,0.00,Wunderground v.1.15,2013-03-13 20:07:00,
2013-03-13 16:10:00,75.4,31.5,30.08,NNE,21,2.0,7.0,20,0.00,,,0.00,Wunderground v.1.15,2013-03-13 20:10:00,
2013-03-13 16:11:00,75.3,31.4,30.08,WSW,248,0.0,5.0,20,0.00,,,0.00,Wunderground v.1.15,2013-03-13 20:11:00,
2013-03-13 16:12:00,75.3,32.6,30.08,NNE,31,1.0,5.0,21,0.00,,,0.00,Wunderground v.1.15,2013-03-13 20:12:00,
2013-03-13 16:15:00,75.1,31.3,30.08,North,355,0.0,5.0,20,0.00,,,0.00,Wunderground v.1.15,2013-03-13 20:15:00,
2013-03-13 16:16:00,75.3,32.6,30.08,North,350,2.0,5.0,21,0.00,,,0.00,Wunderground v.1.15,2013-03-13 20:16:00,
2013-03-13 16:17:00,74.9,31.1,30.08,NW,311,2.0,5.0,20,0.00,,,0.00,Wunderground v.1.15,2013-03-13 20:17:00,
2013-03-13 16:20:00,74.4,30.7,30.08,NNW,348,1.0,1.0,20,0.00,,,0.00,Wunderground v.1.15,2013-03-13 20:20:00,
2013-03-13 16:21:00,74.7,32.1,30.08,North,355,0.0,3.0,21,0.00,,,0.00,Wunderground v.1.15,2013-03-13 20:21:00,
2013-03-13 16:22:00,74.7,32.1,30.08,NNE,32,1.0,3.0,21,0.00,,,0.00,Wunderground v.1.15,2013-03-13 20:22:00,
2013-03-13 16:23:00,74.7,30.9,30.08,NNW,329,5.0,8.0,20,0.00,,,0.00,Wunderground v.1.15,2013-03-13 20:23:00,
2013-03-13 16:25:00,74.6,30.9,30.08,WNW,290,7.0,8.0,20,0.00,,,0.00,Wunderground v.1.15,2013-03-13 20:25:00,
2013-03-13 16:27:00,74.6,32.1,30.08,NNW,348,1.0,8.0,21,0.00,,,0.00,Wunderground v.1.15,2013-03-13 20:27:00,
2013-03-13 16:28:00,74.6,30.9,30.08,ENE,63,1.0,8.0,20,0.00,,,0.00,Wunderground v.1.15,2013-03-13 20:28:00,
2013-03-13 16:30:00,74.0,31.6,30.08,NNW,344,1.0,4.0,21,0.00,,,0.00,Wunderground v.1.15,2013-03-13 20:30:00,
2013-03-13 16:32:00,73.9,30.3,30.08,West,274,2.0,4.0,20,0.00,,,0.00,Wunderground v.1.15,2013-03-13 20:32:00,
2013-03-13 16:33:00,73.9,30.3,30.08,West,274,0.0,4.0,20,0.00,,,0.00,Wunderground v.1.15,2013-03-13 20:33:00,
2013-03-13 16:36:00,74.4,30.7,30.08,North,5,1.0,4.0,20,0.00,,,0.00,Wunderground v.1.15,2013-03-13 20:36:00,
2013-03-13 16:37:00,74.6,30.9,30.08,NW,325,5.0,8.0,20,0.00,,,0.00,Wunderground v.1.15,2013-03-13 20:37:00,
2013-03-13 16:38:00,74.6,32.1,30.08,NW,317,3.0,8.0,21,0.00,,,0.00,Wunderground v.1.15,2013-03-13 20:38:00,
2013-03-13 16:39:00,74.6,32.1,30.08,NNW,346,3.0,8.0,21,0.00,,,0.00,Wunderground v.1.15,2013-03-13 20:39:00,
2013-03-13 16:41:00,74.4,31.9,30.08,North,355,0.0,5.0,21,0.00,,,0.00,Wunderground v.1.15,2013-03-13 20:41:00,
2013-03-13 16:43:00,74.6,30.9,30.07,NNE,17,4.0,5.0,20,0.00,,,0.00,Wunderground v.1.15,2013-03-13 20:43:00,
2013-03-13 16:44:00,74.6,30.9,30.08,NW,311,2.0,5.0,20,0.00,,,0.00,Wunderground v.1.15,2013-03-13 20:44:00,
2013-03-13 16:46:00,74.4,30.7,30.08,NNW,329,1.0,6.0,20,0.00,,,0.00,Wunderground v.1.15,2013-03-13 20:46:00,
2013-03-13 16:48:00,74.6,32.1,30.08,NW,325,1.0,6.0,21,0.00,,,0.00,Wunderground v.1.15,2013-03-13 20:48:00,
2013-03-13 16:49:00,74.9,32.3,30.07,NW,325,0.0,6.0,21,0.00,,,0.00,Wunderground v.1.15,2013-03-13 20:49:00,
2013-03-13 16:51:00,75.1,32.5,30.07,NNE,33,0.0,2.0,21,0.00,,,0.00,Wunderground v.1.15,2013-03-13 20:51:00,
2013-03-13 16:53:00,75.3,32.6,30.07,NNE,30,0.0,2.0,21,0.00,,,0.00,Wunderground v.1.15,2013-03-13 20:53:00,
2013-03-13 16:54:00,75.4,32.7,30.07,NNE,32,0.0,2.0,21,0.00,,,0.00,Wunderground v.1.15,2013-03-13 20:54:00,
2013-03-13 16:55:00,75.4,31.5,30.07,NNW,348,2.0,5.0,20,0.00,,,0.00,Wunderground v.1.15,2013-03-13 20:55:00,
2013-03-13 16:57:00,75.1,31.3,30.07,North,355,2.0,5.0,20,0.00,,,0.00,Wunderground v.1.15,2013-03-13 20:57:00,
2013-03-13 16:58:00,75.1,31.3,30.07,NNE,15,0.0,5.0,20,0.00,,,0.00,Wunderground v.1.15,2013-03-13 20:58:00,
2013-03-13 16:59:00,75.1,31.3,30.07,NNW,338,2.0,5.0,20,0.00,,,0.00,Wunderground v.1.15,2013-03-13 20:59:00,
2013-03-13 17:00:00,75.3,32.6,30.07,NNW,340,2.0,2.0,21,0.00,,,0.00,Wunderground v.1.15,2013-03-13 21:00:00,
2013-03-13 17:02:00,75.1,31.3,30.07,West,265,2.0,4.0,20,0.00,,,0.00,Wunderground v.1.15,2013-03-13 21:02:00,
2013-03-13 17:03:00,74.9,32.3,30.07,SW,232,4.0,5.0,21,0.00,,,0.00,Wunderground v.1.15,2013-03-13 21:03:00,
2013-03-13 17:04:00,74.9,31.1,30.07,West,273,1.0,5.0,20,0.00,,,0.00,Wunderground v.1.15,2013-03-13 21:04:00,
2013-03-13 17:06:00,74.6,30.9,30.07,WSW,240,0.0,5.0,20,0.00,,,0.00,Wunderground v.1.15,2013-03-13 21:06:00,
2013-03-13 17:07:00,74.6,32.1,30.07,NNW,327,2.0,5.0,21,0.00,,,0.00,Wunderground v.1.15,2013-03-13 21:07:00,
2013-03-13 17:08:00,74.6,30.9,30.07,NW,315,1.0,5.0,20,0.00,,,0.00,Wunderground v.1.15,2013-03-13 21:08:00,
2013-03-13 17:10:00,74.6,30.9,30.07,NW,315,0.0,1.0,20,0.00,,,0.00,Wunderground v.1.15,2013-03-13 21:10:00,
2013-03-13 17:11:00,74.6,30.9,30.07,NE,37,2.0,2.0,20,0.00,,,0.00,Wunderground v.1.15,2013-03-13 21:11:00,
2013-03-13 17:13:00,74.4,30.7,30.07,NNW,346,0.0,2.0,20,0.00,,,0.00,Wunderground v.1.15,2013-03-13 21:13:00,
2013-03-13 17:14:00,74.6,32.1,30.07,NE,44,1.0,2.0,21,0.00,,,0.00,Wunderground v.1.15,2013-03-13 21:14:00,
2013-03-13 17:15:00,74.6,30.9,30.07,NNE,17,0.0,3.0,20,0.00,,,0.00,Wunderground v.1.15,2013-03-13 21:15:00,
2013-03-13 17:17:00,74.4,30.7,30.07,WNW,286,2.0,3.0,20,0.00,,,0.00,Wunderground v.1.15,2013-03-13 21:17:00,
2013-03-13 17:18:00,74.2,30.5,30.07,WNW,286,0.0,3.0,20,0.00,,,0.00,Wunderground v.1.15,2013-03-13 21:18:00,
2013-03-13 17:20:00,73.9,30.3,30.07,WNW,286,0.0,3.0,20,0.00,,,0.00,Wunderground v.1.15,2013-03-13 21:20:00,
2013-03-13 17:22:00,73.7,30.1,30.07,NW,323,2.0,2.0,20,0.00,,,0.00,Wunderground v.1.15,2013-03-13 21:22:00,
2013-03-13 17:23:00,73.9,31.5,30.07,NNW,328,0.0,2.0,21,0.00,,,0.00,Wunderground v.1.15,2013-03-13 21:23:00,
2013-03-13 17:25:00,74.2,30.5,30.07,ENE,62,1.0,6.0,20,0.00,,,0.00,Wunderground v.1.15,2013-03-13 21:25:00,
2013-03-13 17:27:00,74.4,31.9,30.07,North,360,3.0,6.0,21,0.00,,,0.00,Wunderground v.1.15,2013-03-13 21:27:00,
2013-03-13 17:28:00,74.4,29.4,30.07,NE,37,1.0,6.0,19,0.00,,,0.00,Wunderground v.1.15,2013-03-13 21:28:00,
2013-03-13 17:30:00,74.4,31.9,30.07,NE,43,0.0,6.0,21,0.00,,,0.00,Wunderground v.1.15,2013-03-13 21:30:00,
2013-03-13 17:33:00,74.6,30.9,30.07,NNW,342,0.0,5.0,20,0.00,,,0.00,Wunderground v.1.15,2013-03-13 21:33:00,
2013-03-13 17:34:00,74.7,32.1,30.07,NNW,342,0.0,5.0,21,0.00,,,0.00,Wunderground v.1.15,2013-03-13 21:34:00,
2013-03-13 17:35:00,74.7,30.9,30.07,NNW,342,0.0,5.0,20,0.00,,,0.00,Wunderground v.1.15,2013-03-13 21:35:00,
2013-03-13 17:38:00,74.9,33.5,30.06,NNE,27,1.0,5.0,22,0.00,,,0.00,Wunderground v.1.15,2013-03-13 21:38:00,
2013-03-13 17:39:00,74.9,33.5,30.07,NNE,29,0.0,5.0,22,0.00,,,0.00,Wunderground v.1.15,2013-03-13 21:39:00,
2013-03-13 17:40:00,74.9,32.3,30.06,NE,35,0.0,0.0,21,0.00,,,0.00,Wunderground v.1.15,2013-03-13 21:40:00,
2013-03-13 17:44:00,74.7,32.1,30.06,NE,35,0.0,1.0,21,0.00,,,0.00,Wunderground v.1.15,2013-03-13 21:44:00,
2013-03-13 17:45:00,74.9,32.3,30.06,NE,35,0.0,1.0,21,0.00,,,0.00,Wunderground v.1.15,2013-03-13 21:45:00,
2013-03-13 17:49:00,74.6,30.9,30.06,ENE,71,0.0,1.0,20,0.00,,,0.00,Wunderground v.1.15,2013-03-13 21:49:00,
2013-03-13 17:50:00,74.6,32.1,30.06,ENE,71,0.0,1.0,21,0.00,,,0.00,Wunderground v.1.15,2013-03-13 21:50:00,
2013-03-13 17:51:00,74.6,32.1,30.06,NW,305,2.0,4.0,21,0.00,,,0.00,Wunderground v.1.15,2013-03-13 21:51:00,
2013-03-13 17:54:00,74.6,29.6,30.06,NNW,334,0.0,8.0,19,0.00,,,0.00,Wunderground v.1.15,2013-03-13 21:54:00,
2013-03-13 17:55:00,74.6,29.6,30.06,NE,52,0.0,8.0,19,0.00,,,0.00,Wunderground v.1.15,2013-03-13 21:55:00,
2013-03-13 17:56:00,74.6,29.6,30.06,NE,53,0.0,8.0,19,0.00,,,0.00,Wunderground v.1.15,2013-03-13 21:56:00,
2013-03-13 17:59:00,74.6,28.3,30.06,North,355,4.0,9.0,18,0.00,,,0.00,Wunderground v.1.15,2013-03-13 21:59:00,
2013-03-13 18:00:00,74.6,29.6,30.06,NW,317,2.0,3.0,19,0.00,,,0.00,Wunderground v.1.15,2013-03-13 22:00:00,
2013-03-13 18:01:00,74.6,28.3,30.06,WNW,287,4.0,4.0,18,0.00,,,0.00,Wunderground v.1.15,2013-03-13 22:01:00,
2013-03-13 18:04:00,74.6,28.3,30.07,NW,309,0.0,8.0,18,0.00,,,0.00,Wunderground v.1.15,2013-03-13 22:04:00,
2013-03-13 18:05:00,74.6,29.6,30.07,NW,319,0.0,8.0,19,0.00,,,0.00,Wunderground v.1.15,2013-03-13 22:05:00,
2013-03-13 18:06:00,74.6,29.6,30.07,NW,315,4.0,8.0,19,0.00,,,0.00,Wunderground v.1.15,2013-03-13 22:06:00,
2013-03-13 18:09:00,74.4,29.4,30.07,NW,315,7.0,10.0,19,0.00,,,0.00,Wunderground v.1.15,2013-03-13 22:09:00,
2013-03-13 18:10:00,74.4,29.4,30.07,West,277,0.0,5.0,19,0.00,,,0.00,Wunderground v.1.15,2013-03-13 22:10:00,
2013-03-13 18:11:00,74.4,29.4,30.07,West,263,8.0,8.0,19,0.00,,,0.00,Wunderground v.1.15,2013-03-13 22:11:00,
2013-03-13 18:14:00,74.2,29.3,30.07,NNW,329,4.0,8.0,19,0.00,,,0.00,Wunderground v.1.15,2013-03-13 22:14:00,
2013-03-13 18:16:00,74.0,29.1,30.07,WNW,292,1.0,8.0,19,0.00,,,0.00,Wunderground v.1.15,2013-03-13 22:16:00,
2013-03-13 18:17:00,74.0,29.1,30.07,WNW,297,2.0,8.0,19,0.00,,,0.00,Wunderground v.1.15,2013-03-13 22:17:00,
2013-03-13 18:20:00,74.0,29.1,30.07,West,260,0.0,8.0,19,0.00,,,0.00,Wunderground v.1.15,2013-03-13 22:20:00,
2013-03-13 18:22:00,74.0,29.1,30.07,NNW,332,3.0,4.0,19,0.00,,,0.00,Wunderground v.1.15,2013-03-13 22:22:00,
2013-03-13 18:25:00,73.9,29.0,30.07,NE,34,2.0,7.0,19,0.00,,,0.00,Wunderground v.1.15,2013-03-13 22:25:00,
2013-03-13 18:27:00,73.9,29.0,30.07,NNE,12,0.0,7.0,19,0.00,,,0.00,Wunderground v.1.15,2013-03-13 22:27:00,
2013-03-13 18:28:00,73.9,29.0,30.07,NE,39,0.0,8.0,19,0.00,,,0.00,Wunderground v.1.15,2013-03-13 22:28:00,
2013-03-13 18:30:00,73.7,28.8,30.07,West,275,7.0,7.0,19,0.00,,,0.00,Wunderground v.1.15,2013-03-13 22:30:00,
2013-03-13 18:32:00,73.7,28.8,30.07,WNW,294,4.0,9.0,19,0.00,,,0.00,Wunderground v.1.15,2013-03-13 22:32:00,
2013-03-13 18:33:00,73.7,28.8,30.07,NNW,333,6.0,9.0,19,0.00,,,0.00,Wunderground v.1.15,2013-03-13 22:33:00,
2013-03-13 18:35:00,73.5,28.7,30.06,West,280,6.0,9.0,19,0.00,,,0.00,Wunderground v.1.15,2013-03-13 22:35:00,
2013-03-13 18:37:00,73.3,28.5,30.06,West,273,1.0,9.0,19,0.00,,,0.00,Wunderground v.1.15,2013-03-13 22:37:00,
2013-03-13 18:38:00,73.3,28.5,30.06,WNW,302,2.0,9.0,19,0.00,,,0.00,Wunderground v.1.15,2013-03-13 22:38:00,
2013-03-13 18:41:00,73.2,28.4,30.06,West,275,6.0,8.0,19,0.00,,,0.00,Wunderground v.1.15,2013-03-13 22:41:00,
2013-03-13 18:42:00,73.0,28.3,30.06,NNW,331,1.0,8.0,19,0.00,,,0.00,Wunderground v.1.15,2013-03-13 22:42:00,
2013-03-13 18:43:00,73.0,28.3,30.06,NE,49,3.0,8.0,19,0.00,,,0.00,Wunderground v.1.15,2013-03-13 22:43:00,
2013-03-13 18:44:00,73.0,28.3,30.06,NNW,348,2.0,8.0,19,0.00,,,0.00,Wunderground v.1.15,2013-03-13 22:44:00,
2013-03-13 18:46:00,72.8,28.1,30.06,WNW,300,8.0,8.0,19,0.00,,,0.00,Wunderground v.1.15,2013-03-13 22:46:00,
2013-03-13 18:47:00,72.7,28.0,30.07,West,265,7.0,8.0,19,0.00,,,0.00,Wunderground v.1.15,2013-03-13 22:47:00,
2013-03-13 18:48:00,72.7,28.0,30.06,NW,319,3.0,8.0,19,0.00,,,0.00,Wunderground v.1.15,2013-03-13 22:48:00,
2013-03-13 18:49:00,72.7,28.0,30.07,NW,317,4.0,8.0,19,0.00,,,0.00,Wunderground v.1.15,2013-03-13 22:49:00,
2013-03-13 18:51:00,72.5,29.1,30.07,NNW,327,1.0,3.0,20,0.00,,,0.00,Wunderground v.1.15,2013-03-13 22:51:00,
2013-03-13 18:52:00,72.5,29.1,30.07,WNW,298,0.0,3.0,20,0.00,,,0.00,Wunderground v.1.15,2013-03-13 22:52:00,
2013-03-13 18:53:00,72.3,29.0,30.07,NW,325,4.0,5.0,20,0.00,,,0.00,Wunderground v.1.15,2013-03-13 22:53:00,
2013-03-13 18:54:00,72.3,29.0,30.07,NW,323,1.0,6.0,20,0.00,,,0.00,Wunderground v.1.15,2013-03-13 22:54:00,
2013-03-13 18:56:00,72.1,28.8,30.07,West,279,0.0,6.0,20,0.00,,,0.00,Wunderground v.1.15,2013-03-13 22:56:00,
2013-03-13 18:58:00,72.1,28.8,30.07,NW,315,0.0,6.0,20,0.00,,,0.00,Wunderground v.1.15,2013-03-13 22:58:00,
2013-03-13 18:59:00,72.0,28.7,30.07,NW,323,0.0,6.0,20,0.00,,,0.00,Wunderground v.1.15,2013-03-13 22:59:00,
2013-03-13 19:02:00,71.8,29.7,30.07,NW,323,0.0,1.0,21,0.00,,,0.00,Wunderground v.1.15,2013-03-13 23:02:00,
2013-03-13 19:03:00,71.6,29.6,30.07,NW,324,1.0,1.0,21,0.00,,,0.00,Wunderground v.1.15,2013-03-13 23:03:00,
2013-03-13 19:04:00,71.6,29.6,30.07,NW,322,6.0,6.0,21,0.00,,,0.00,Wunderground v.1.15,2013-03-13 23:04:00,
2013-03-13 19:07:00,71.3,29.3,30.07,NNW,332,0.0,6.0,21,0.00,,,0.00,Wunderground v.1.15,2013-03-13 23:07:00,
2013-03-13 19:08:00,71.3,29.3,30.07,NW,315,2.0,6.0,21,0.00,,,0.00,Wunderground v.1.15,2013-03-13 23:08:00,
2013-03-13 19:09:00,71.1,29.2,30.07,WSW,249,2.0,6.0,21,0.00,,,0.00,Wunderground v.1.15,2013-03-13 23:09:00,
2013-03-13 19:12:00,70.9,27.8,30.07,NW,313,0.0,3.0,20,0.00,,,0.00,Wunderground v.1.15,2013-03-13 23:12:00,
2013-03-13 19:13:00,70.8,27.7,30.07,NW,313,0.0,3.0,20,0.00,,,0.00,Wunderground v.1.15,2013-03-13 23:13:00,
2013-03-13 19:14:00,70.8,27.7,30.08,NW,313,1.0,3.0,20,0.00,,,0.00,Wunderground v.1.15,2013-03-13 23:14:00,
2013-03-13 19:15:00,70.8,27.7,30.08,NW,307,1.0,3.0,20,0.00,,,0.00,Wunderground v.1.15,2013-03-13 23:15:00,
2013-03-13 19:17:00,70.4,28.6,30.07,North,10,0.0,4.0,21,0.00,,,0.00,Wunderground v.1.15,2013-03-13 23:17:00,
2013-03-13 19:18:00,70.3,28.5,30.08,North,10,0.0,4.0,21,0.00,,,0.00,Wunderground v.1.15,2013-03-13 23:18:00,
2013-03-13 19:19:00,70.3,28.5,30.08,North,9,0.0,4.0,21,0.00,,,0.00,Wunderground v.1.15,2013-03-13 23:19:00,
2013-03-13 19:21:00,70.1,29.5,30.08,North,9,0.0,0.0,22,0.00,,,0.00,Wunderground v.1.15,2013-03-13 23:21:00,
2013-03-13 19:23:00,69.8,29.2,30.08,North,9,0.0,0.0,22,0.00,,,0.00,Wunderground v.1.15,2013-03-13 23:23:00,
2013-03-13 19:24:00,69.8,29.2,30.08,North,5,0.0,1.0,22,0.00,,,0.00,Wunderground v.1.15,2013-03-13 23:24:00,
2013-03-13 19:25:00,69.6,29.0,30.08,NNW,340,1.0,4.0,22,0.00,,,0.00,Wunderground v.1.15,2013-03-13 23:25:00,
2013-03-13 19:26:00,69.4,28.9,30.08,NNW,340,0.0,4.0,22,0.00,,,0.00,Wunderground v.1.15,2013-03-13 23:26:00,
2013-03-13 19:28:00,69.3,28.8,30.08,WNW,295,0.0,4.0,22,0.00,,,0.00,Wunderground v.1.15,2013-03-13 23:28:00,
2013-03-13 19:29:00,69.1,28.6,30.08,WNW,295,0.0,4.0,22,0.00,,,0.00,Wunderground v.1.15,2013-03-13 23:29:00,
2013-03-13 19:30:00,69.1,29.7,30.08,WNW,295,0.0,4.0,23,0.00,,,0.00,Wunderground v.1.15,2013-03-13 23:30:00,
2013-03-13 19:31:00,68.8,28.4,30.08,WNW,300,0.0,1.0,22,0.00,,,0.00,Wunderground v.1.15,2013-03-13 23:31:00,
2013-03-13 19:33:00,68.6,28.2,30.08,NW,314,0.0,2.0,22,0.00,,,0.00,Wunderground v.1.15,2013-03-13 23:33:00,
2013-03-13 19:34:00,68.6,29.3,30.08,NW,314,0.0,2.0,23,0.00,,,0.00,Wunderground v.1.15,2013-03-13 23:34:00,
2013-03-13 19:35:00,68.6,29.3,30.08,NW,314,0.0,2.0,23,0.00,,,0.00,Wunderground v.1.15,2013-03-13 23:35:00,
2013-03-13 19:37:00,68.3,29.0,30.08,NW,314,0.0,2.0,23,0.00,,,0.00,Wunderground v.1.15,2013-03-13 23:37:00,
2013-03-13 19:38:00,68.1,28.9,30.08,NW,314,0.0,2.0,23,0.00,,,0.00,Wunderground v.1.15,2013-03-13 23:38:00,
2013-03-13 19:39:00,67.9,29.7,30.08,NW,314,0.0,2.0,24,0.00,,,0.00,Wunderground v.1.15,2013-03-13 23:39:00,
2013-03-13 19:40:00,67.8,29.7,30.08,NW,314,0.0,0.0,24,0.00,,,0.00,Wunderground v.1.15,2013-03-13 23:40:00,
2013-03-13 19:43:00,67.3,29.2,30.08,NW,315,0.0,0.0,24,0.00,,,0.00,Wunderground v.1.15,2013-03-13 23:43:00,
2013-03-13 19:44:00,67.1,30.1,30.08,NW,315,0.0,0.0,25,0.00,,,0.00,Wunderground v.1.15,2013-03-13 23:44:00,
2013-03-13 19:45:00,66.9,31.8,30.08,ENE,67,1.0,1.0,27,0.00,,,0.00,Wunderground v.1.15,2013-03-13 23:45:00,
2013-03-13 19:49:00,66.3,35.5,30.09,ESE,114,0.0,4.0,32,0.00,,,0.00,Wunderground v.1.15,2013-03-13 23:49:00,
2013-03-13 19:50:00,66.0,36.1,30.09,East,100,1.0,1.0,33,0.00,,,0.00,Wunderground v.1.15,2013-03-13 23:50:00,
2013-03-13 19:54:00,65.3,36.9,30.09,ESE,111,0.0,4.0,35,0.00,,,0.00,Wunderground v.1.15,2013-03-13 23:54:00,
2013-03-13 19:55:00,65.0,38.1,30.09,ESE,112,2.0,4.0,37,0.00,,,0.00,Wunderground v.1.15,2013-03-13 23:55:00,
2013-03-13 19:59:00,64.2,38.7,30.09,SE,128,0.0,4.0,39,0.00,,,0.00,Wunderground v.1.15,2013-03-13 23:59:00,
2013-03-13 20:00:00,64.2,38.7,30.09,SE,128,0.0,4.0,39,0.00,,,0.00,Wunderground v.1.15,2013-03-14 00:00:00,
2013-03-13 20:01:00,63.9,38.4,30.09,East,92,0.0,1.0,39,0.00,,,0.00,Wunderground v.1.15,2013-03-14 00:01:00,
2013-03-13 20:05:00,63.2,38.5,30.09,NNE,17,0.0,2.0,40,0.00,,,0.00,Wunderground v.1.15,2013-03-14 00:05:00,
2013-03-13 20:06:00,62.9,38.8,30.09,East,87,0.0,2.0,41,0.00,,,0.00,Wunderground v.1.15,2013-03-14 00:06:00,
2013-03-13 20:10:00,62.4,39.0,30.09,SE,128,3.0,3.0,42,0.00,,,0.00,Wunderground v.1.15,2013-03-14 00:10:00,
2013-03-13 20:11:00,62.3,38.9,30.09,ESE,113,2.0,3.0,42,0.00,,,0.00,Wunderground v.1.15,2013-03-14 00:11:00,
2013-03-13 20:13:00,62.1,39.3,30.10,ESE,116,0.0,3.0,43,0.00,,,0.00,Wunderground v.1.15,2013-03-14 00:13:00,
2013-03-13 20:15:00,62.0,39.2,30.10,ESE,116,0.0,3.0,43,0.00,,,0.00,Wunderground v.1.15,2013-03-14 00:15:00,
2013-03-13 20:17:00,61.8,39.6,30.10,ESE,116,0.0,3.0,44,0.00,,,0.00,Wunderground v.1.15,2013-03-14 00:17:00,
2013-03-13 20:18:00,61.6,39.5,30.10,ESE,116,0.0,3.0,44,0.00,,,0.00,Wunderground v.1.15,2013-03-14 00:18:00,
2013-03-13 20:20:00,61.3,39.8,30.10,ESE,116,0.0,1.0,45,0.00,,,0.00,Wunderground v.1.15,2013-03-14 00:20:00,
2013-03-13 20:21:00,61.3,39.8,30.10,ESE,116,0.0,1.0,45,0.00,,,0.00,Wunderground v.1.15,2013-03-14 00:21:00,
2013-03-13 20:22:00,61.3,39.8,30.10,ESE,116,0.0,1.0,45,0.00,,,0.00,Wunderground v.1.15,2013-03-14 00:22:00,
2013-03-13 20:23:00,61.2,39.7,30.10,ESE,116,0.0,1.0,45,0.00,,,0.00,Wunderground v.1.15,2013-03-14 00:23:00,
2013-03-13 20:25:00,61.0,40.1,30.10,ESE,116,0.0,1.0,46,0.00,,,0.00,Wunderground v.1.15,2013-03-14 00:25:00,
2013-03-13 20:26:00,60.9,40.0,30.10,ESE,116,0.0,1.0,46,0.00,,,0.00,Wunderground v.1.15,2013-03-14 00:26:00,
2013-03-13 20:27:00,60.9,40.0,30.10,ESE,116,0.0,1.0,46,0.00,,,0.00,Wunderground v.1.15,2013-03-14 00:27:00,
2013-03-13 20:29:00,60.7,40.3,30.11,ESE,116,0.0,1.0,47,0.00,,,0.00,Wunderground v.1.15,2013-03-14 00:29:00,
2013-03-13 20:31:00,60.4,40.1,30.11,ESE,116,0.0,0.0,47,0.00,,,0.00,Wunderground v.1.15,2013-03-14 00:31:00,
2013-03-13 20:32:00,60.4,40.1,30.11,ESE,116,0.0,0.0,47,0.00,,,0.00,Wunderground v.1.15,2013-03-14 00:32:00,
2013-03-13 20:33:00,60.2,39.9,30.11,ESE,116,0.0,0.0,47,0.00,,,0.00,Wunderground v.1.15,2013-03-14 00:33:00,
2013-03-13 20:34:00,60.2,40.4,30.11,ESE,116,0.0,0.0,48,0.00,,,0.00,Wunderground v.1.15,2013-03-14 00:34:00,
2013-03-13 20:36:00,59.9,40.1,30.11,ESE,116,0.0,0.0,48,0.00,,,0.00,Wunderground v.1.15,2013-03-14 00:36:00,
2013-03-13 20:37:00,59.9,40.1,30.11,ESE,116,0.0,0.0,48,0.00,,,0.00,Wunderground v.1.15,2013-03-14 00:37:00,
2013-03-13 20:38:00,59.8,40.1,30.11,ESE,116,0.0,0.0,48,0.00,,,0.00,Wunderground v.1.15,2013-03-14 00:38:00,
2013-03-13 20:39:00,59.6,40.4,30.11,ESE,116,0.0,0.0,49,0.00,,,0.00,Wunderground v.1.15,2013-03-14 00:39:00,
2013-03-13 20:42:00,59.5,40.3,30.11,ESE,116,0.0,0.0,49,0.00,,,0.00,Wunderground v.1.15,2013-03-14 00:42:00,
2013-03-13 20:44:00,59.3,40.7,30.11,ESE,116,0.0,0.0,50,0.00,,,0.00,Wunderground v.1.15,2013-03-14 00:44:00,
2013-03-13 20:45:00,59.3,40.7,30.11,ESE,116,0.0,0.0,50,0.00,,,0.00,Wunderground v.1.15,2013-03-14 00:45:00,
2013-03-13 20:47:00,59.2,40.6,30.12,ESE,116,0.0,0.0,50,0.00,,,0.00,Wunderground v.1.15,2013-03-14 00:47:00,
2013-03-13 20:50:00,58.7,40.6,30.12,ESE,116,0.0,0.0,51,0.00,,,0.00,Wunderground v.1.15,2013-03-14 00:50:00,
2013-03-13 20:52:00,58.4,40.8,30.12,ESE,116,0.0,0.0,52,0.00,,,0.00,Wunderground v.1.15,2013-03-14 00:52:00,
2013-03-13 20:53:00,58.3,40.7,30.12,ESE,116,0.0,0.0,52,0.00,,,0.00,Wunderground v.1.15,2013-03-14 00:53:00,
2013-03-13 20:55:00,57.8,40.8,30.12,ESE,116,0.0,0.0,53,0.00,,,0.00,Wunderground v.1.15,2013-03-14 00:55:00,
2013-03-13 20:56:00,57.8,40.8,30.12,ESE,116,0.0,0.0,53,0.00,,,0.00,Wunderground v.1.15,2013-03-14 00:56:00,
2013-03-13 20:58:00,57.6,40.6,30.12,ESE,116,0.0,0.0,53,0.00,,,0.00,Wunderground v.1.15,2013-03-14 00:58:00,
2013-03-13 21:01:00,57.3,40.8,30.13,ESE,116,0.0,0.0,54,0.00,,,0.00,Wunderground v.1.15,2013-03-14 01:01:00,
2013-03-13 21:02:00,57.2,40.7,30.13,ESE,116,0.0,0.0,54,0.00,,,0.00,Wunderground v.1.15,2013-03-14 01:02:00,
2013-03-13 21:03:00,57.2,40.7,30.13,ESE,116,0.0,0.0,54,0.00,,,0.00,Wunderground v.1.15,2013-03-14 01:03:00,
2013-03-13 21:07:00,56.7,40.7,30.13,ESE,116,0.0,0.0,55,0.00,,,0.00,Wunderground v.1.15,2013-03-14 01:07:00,
2013-03-13 21:08:00,56.7,40.7,30.13,ESE,116,0.0,0.0,55,0.00,,,0.00,Wunderground v.1.15,2013-03-14 01:08:00,
2013-03-13 21:13:00,56.5,41.0,30.14,ESE,116,0.0,0.0,56,0.00,,,0.00,Wunderground v.1.15,2013-03-14 01:13:00,
2013-03-13 21:18:00,56.0,41.0,30.14,ESE,116,0.0,0.0,57,0.00,,,0.00,Wunderground v.1.15,2013-03-14 01:18:00,
2013-03-13 21:19:00,56.0,41.0,30.14,ESE,116,0.0,0.0,57,0.00,,,0.00,Wunderground v.1.15,2013-03-14 01:19:00,
2013-03-13 21:23:00,55.7,41.6,30.14,ESE,116,0.0,0.0,59,0.00,,,0.00,Wunderground v.1.15,2013-03-14 01:23:00,
2013-03-13 21:24:00,55.7,41.6,30.14,ESE,116,0.0,0.0,59,0.00,,,0.00,Wunderground v.1.15,2013-03-14 01:24:00,
2013-03-13 21:28:00,55.7,41.6,30.15,ESE,116,0.0,0.0,59,0.00,,,0.00,Wunderground v.1.15,2013-03-14 01:28:00,
2013-03-13 21:29:00,55.7,41.6,30.15,ESE,116,0.0,0.0,59,0.00,,,0.00,Wunderground v.1.15,2013-03-14 01:29:00,
2013-03-13 21:33:00,54.8,41.6,30.15,ESE,116,0.0,0.0,61,0.00,,,0.00,Wunderground v.1.15,2013-03-14 01:33:00,
2013-03-13 21:34:00,54.7,41.5,30.15,ESE,116,0.0,0.0,61,0.00,,,0.00,Wunderground v.1.15,2013-03-14 01:34:00,
2013-03-13 21:35:00,54.5,41.7,30.15,ESE,116,0.0,0.0,62,0.00,,,0.00,Wunderground v.1.15,2013-03-14 01:35:00,
2013-03-13 21:38:00,54.4,42.1,30.15,ESE,116,0.0,0.0,63,0.00,,,0.00,Wunderground v.1.15,2013-03-14 01:38:00,
2013-03-13 21:39:00,54.4,42.1,30.15,ESE,116,0.0,0.0,63,0.00,,,0.00,Wunderground v.1.15,2013-03-14 01:39:00,
2013-03-13 21:40:00,54.2,41.5,30.15,ESE,116,0.0,0.0,62,0.00,,,0.00,Wunderground v.1.15,2013-03-14 01:40:00,
2013-03-13 21:43:00,53.9,42.0,30.16,ESE,116,0.0,0.0,64,0.00,,,0.00,Wunderground v.1.15,2013-03-14 01:43:00,
2013-03-13 21:44:00,53.9,42.0,30.16,ESE,116,0.0,0.0,64,0.00,,,0.00,Wunderground v.1.15,2013-03-14 01:44:00,
2013-03-13 21:46:00,53.8,41.9,30.15,ESE,116,0.0,0.0,64,0.00,,,0.00,Wunderground v.1.15,2013-03-14 01:46:00,
2013-03-13 21:49:00,53.8,41.9,30.16,ESE,116,0.0,0.0,64,0.00,,,0.00,Wunderground v.1.15,2013-03-14 01:49:00,
2013-03-13 21:50:00,53.8,41.9,30.16,ESE,116,0.0,0.0,64,0.00,,,0.00,Wunderground v.1.15,2013-03-14 01:50:00,
2013-03-13 21:52:00,53.6,41.7,30.16,ESE,116,0.0,0.0,64,0.00,,,0.00,Wunderground v.1.15,2013-03-14 01:52:00,
2013-03-13 21:54:00,53.5,42.0,30.16,ESE,116,0.0,0.0,65,0.00,,,0.00,Wunderground v.1.15,2013-03-14 01:54:00,
2013-03-13 21:56:00,53.5,42.0,30.16,ESE,116,0.0,0.0,65,0.00,,,0.00,Wunderground v.1.15,2013-03-14 01:56:00,
2013-03-13 21:57:00,53.2,41.7,30.16,ESE,116,0.0,0.0,65,0.00,,,0.00,Wunderground v.1.15,2013-03-14 01:57:00,
2013-03-13 21:59:00,53.1,41.6,30.16,ESE,116,0.0,0.0,65,0.00,,,0.00,Wunderground v.1.15,2013-03-14 01:59:00,
2013-03-13 22:00:00,52.9,41.4,30.16,ESE,116,0.0,0.0,65,0.00,,,0.00,Wunderground v.1.15,2013-03-14 02:00:00,
2013-03-13 22:01:00,52.9,41.4,30.16,ESE,116,0.0,0.0,65,0.00,,,0.00,Wunderground v.1.15,2013-03-14 02:01:00,
2013-03-13 22:03:00,52.8,41.7,30.16,ESE,116,0.0,0.0,66,0.00,,,0.00,Wunderground v.1.15,2013-03-14 02:03:00,
2013-03-13 22:05:00,52.8,41.7,30.16,ESE,116,0.0,0.0,66,0.00,,,0.00,Wunderground v.1.15,2013-03-14 02:05:00,
2013-03-13 22:07:00,52.6,41.6,30.16,ESE,116,0.0,0.0,66,0.00,,,0.00,Wunderground v.1.15,2013-03-14 02:07:00,
2013-03-13 22:08:00,52.5,41.9,30.16,ESE,116,0.0,0.0,67,0.00,,,0.00,Wunderground v.1.15,2013-03-14 02:08:00,
2013-03-13 22:10:00,52.5,41.9,30.16,ESE,116,0.0,0.0,67,0.00,,,0.00,Wunderground v.1.15,2013-03-14 02:10:00,
2013-03-13 22:12:00,52.3,41.7,30.16,ESE,116,0.0,0.0,67,0.00,,,0.00,Wunderground v.1.15,2013-03-14 02:12:00,
2013-03-13 22:14:00,52.3,41.7,30.16,ESE,116,0.0,0.0,67,0.00,,,0.00,Wunderground v.1.15,2013-03-14 02:14:00,
2013-03-13 22:15:00,52.3,42.0,30.16,ESE,116,0.0,0.0,68,0.00,,,0.00,Wunderground v.1.15,2013-03-14 02:15:00,
2013-03-13 22:19:00,52.2,42.3,30.17,ESE,116,0.0,0.0,69,0.00,,,0.00,Wunderground v.1.15,2013-03-14 02:19:00,
2013-03-13 22:21:00,52.3,42.4,30.17,ESE,116,0.0,0.0,69,0.00,,,0.00,Wunderground v.1.15,2013-03-14 02:21:00,
2013-03-13 22:24:00,52.2,42.3,30.16,ESE,116,0.0,0.0,69,0.00,,,0.00,Wunderground v.1.15,2013-03-14 02:24:00,
2013-03-13 22:26:00,52.0,42.1,30.16,ESE,116,0.0,0.0,69,0.00,,,0.00,Wunderground v.1.15,2013-03-14 02:26:00,
2013-03-13 22:29:00,51.9,42.4,30.17,ESE,116,0.0,0.0,70,0.00,,,0.00,Wunderground v.1.15,2013-03-14 02:29:00,
2013-03-13 22:32:00,51.7,42.6,30.17,ESE,116,0.0,0.0,71,0.00,,,0.00,Wunderground v.1.15,2013-03-14 02:32:00,
2013-03-13 22:34:00,51.6,42.5,30.17,ESE,116,0.0,0.0,71,0.00,,,0.00,Wunderground v.1.15,2013-03-14 02:34:00,
2013-03-13 22:35:00,51.6,42.5,30.17,ESE,116,0.0,0.0,71,0.00,,,0.00,Wunderground v.1.15,2013-03-14 02:35:00,
2013-03-13 22:37:00,51.6,42.5,30.17,ESE,116,0.0,0.0,71,0.00,,,0.00,Wunderground v.1.15,2013-03-14 02:37:00,
2013-03-13 22:39:00,51.4,42.3,30.17,ESE,116,0.0,0.0,71,0.00,,,0.00,Wunderground v.1.15,2013-03-14 02:39:00,
2013-03-13 22:40:00,51.4,42.3,30.17,ESE,116,0.0,0.0,71,0.00,,,0.00,Wunderground v.1.15,2013-03-14 02:40:00,
2013-03-13 22:42:00,51.3,42.6,30.17,ESE,116,0.0,0.0,72,0.00,,,0.00,Wunderground v.1.15,2013-03-14 02:42:00,
2013-03-13 22:43:00,51.3,42.6,30.17,ESE,116,0.0,0.0,72,0.00,,,0.00,Wunderground v.1.15,2013-03-14 02:43:00,
2013-03-13 22:44:00,51.3,42.6,30.17,ESE,116,0.0,0.0,72,0.00,,,0.00,Wunderground v.1.15,2013-03-14 02:44:00,
2013-03-13 22:47:00,51.0,42.3,30.17,ESE,116,0.0,0.0,72,0.00,,,0.00,Wunderground v.1.15,2013-03-14 02:47:00,
2013-03-13 22:48:00,51.0,42.3,30.17,ESE,116,0.0,0.0,72,0.00,,,0.00,Wunderground v.1.15,2013-03-14 02:48:00,
2013-03-13 22:50:00,50.8,42.5,30.17,ESE,116,0.0,0.0,73,0.00,,,0.00,Wunderground v.1.15,2013-03-14 02:50:00,
2013-03-13 22:53:00,50.7,42.4,30.17,ESE,116,0.0,0.0,73,0.00,,,0.00,Wunderground v.1.15,2013-03-14 02:53:00,
2013-03-13 22:54:00,50.5,42.2,30.17,ESE,116,0.0,0.0,73,0.00,,,0.00,Wunderground v.1.15,2013-03-14 02:54:00,
2013-03-13 22:56:00,50.4,42.4,30.17,ESE,116,0.0,0.0,74,0.00,,,0.00,Wunderground v.1.15,2013-03-14 02:56:00,
2013-03-13 22:58:00,50.4,42.4,30.17,ESE,116,0.0,0.0,74,0.00,,,0.00,Wunderground v.1.15,2013-03-14 02:58:00,
2013-03-13 22:59:00,50.4,42.4,30.17,ESE,116,0.0,0.0,74,0.00,,,0.00,Wunderground v.1.15,2013-03-14 02:59:00,
2013-03-13 23:01:00,50.2,42.6,30.17,ESE,116,0.0,0.0,75,0.00,,,0.00,Wunderground v.1.15,2013-03-14 03:01:00,
2013-03-13 23:04:00,50.1,42.5,30.17,ESE,116,0.0,0.0,75,0.00,,,0.00,Wunderground v.1.15,2013-03-14 03:04:00,
2013-03-13 23:06:00,49.9,42.6,30.17,ESE,116,0.0,0.0,76,0.00,,,0.00,Wunderground v.1.15,2013-03-14 03:06:00,
2013-03-13 23:09:00,49.9,42.6,30.18,ESE,116,0.0,0.0,76,0.00,,,0.00,Wunderground v.1.15,2013-03-14 03:09:00,
2013-03-13 23:10:00,50.1,42.8,30.18,ESE,116,0.0,0.0,76,0.00,,,0.00,Wunderground v.1.15,2013-03-14 03:10:00,
2013-03-13 23:12:00,49.9,42.6,30.18,ESE,116,0.0,0.0,76,0.00,,,0.00,Wunderground v.1.15,2013-03-14 03:12:00,
2013-03-13 23:14:00,49.9,42.3,30.18,ESE,116,0.0,0.0,75,0.00,,,0.00,Wunderground v.1.15,2013-03-14 03:14:00,
2013-03-13 23:15:00,49.9,42.6,30.18,ESE,116,0.0,0.0,76,0.00,,,0.00,Wunderground v.1.15,2013-03-14 03:15:00,
2013-03-13 23:18:00,49.6,42.3,30.18,ESE,116,0.0,0.0,76,0.00,,,0.00,Wunderground v.1.15,2013-03-14 03:18:00,
2013-03-13 23:19:00,49.6,42.3,30.18,ESE,116,0.0,0.0,76,0.00,,,0.00,Wunderground v.1.15,2013-03-14 03:19:00,
2013-03-13 23:22:00,49.2,42.0,30.18,ESE,116,0.0,0.0,76,0.00,,,0.00,Wunderground v.1.15,2013-03-14 03:22:00,
2013-03-13 23:23:00,49.1,42.2,30.18,ESE,116,0.0,0.0,77,0.00,,,0.00,Wunderground v.1.15,2013-03-14 03:23:00,
2013-03-13 23:24:00,49.1,42.2,30.18,ESE,116,0.0,0.0,77,0.00,,,0.00,Wunderground v.1.15,2013-03-14 03:24:00,
2013-03-13 23:25:00,49.1,42.2,30.18,ESE,116,0.0,0.0,77,0.00,,,0.00,Wunderground v.1.15,2013-03-14 03:25:00,
2013-03-13 23:27:00,48.9,42.0,30.18,ESE,116,0.0,0.0,77,0.00,,,0.00,Wunderground v.1.15,2013-03-14 03:27:00,
2013-03-13 23:29:00,48.9,42.0,30.19,ESE,116,0.0,0.0,77,0.00,,,0.00,Wunderground v.1.15,2013-03-14 03:29:00,
2013-03-13 23:30:00,48.9,42.3,30.18,ESE,116,0.0,0.0,78,0.00,,,0.00,Wunderground v.1.15,2013-03-14 03:30:00,
2013-03-13 23:32:00,48.9,42.0,30.19,ESE,116,0.0,0.0,77,0.00,,,0.00,Wunderground v.1.15,2013-03-14 03:32:00,
2013-03-13 23:34:00,48.9,42.0,30.19,ESE,116,0.0,0.0,77,0.00,,,0.00,Wunderground v.1.15,2013-03-14 03:34:00,
2013-03-13 23:35:00,48.8,41.9,30.19,ESE,116,0.0,0.0,77,0.00,,,0.00,Wunderground v.1.15,2013-03-14 03:35:00,
2013-03-13 23:37:00,48.6,42.0,30.18,ESE,116,0.0,0.0,78,0.00,,,0.00,Wunderground v.1.15,2013-03-14 03:37:00,
2013-03-13 23:39:00,48.6,42.0,30.19,ESE,116,0.0,0.0,78,0.00,,,0.00,Wunderground v.1.15,2013-03-14 03:39:00,
2013-03-13 23:40:00,48.5,42.0,30.18,ESE,116,0.0,0.0,78,0.00,,,0.00,Wunderground v.1.15,2013-03-14 03:40:00,
2013-03-13 23:41:00,48.5,42.0,30.18,ESE,116,0.0,0.0,78,0.00,,,0.00,Wunderground v.1.15,2013-03-14 03:41:00,
2013-03-13 23:42:00,48.5,42.3,30.18,ESE,116,0.0,0.0,79,0.00,,,0.00,Wunderground v.1.15,2013-03-14 03:42:00,
2013-03-13 23:45:00,48.5,42.3,30.18,ESE,116,0.0,0.0,79,0.00,,,0.00,Wunderground v.1.15,2013-03-14 03:45:00,
2013-03-13 23:46:00,48.3,42.1,30.18,ESE,116,0.0,0.0,79,0.00,,,0.00,Wunderground v.1.15,2013-03-14 03:46:00,
2013-03-13 23:47:00,48.3,42.1,30.19,ESE,116,0.0,0.0,79,0.00,,,0.00,Wunderground v.1.15,2013-03-14 03:47:00,
2013-03-13 23:50:00,48.2,42.0,30.18,ESE,116,0.0,0.0,79,0.00,,,0.00,Wunderground v.1.15,2013-03-14 03:50:00,
2013-03-13 23:51:00,48.2,42.0,30.18,ESE,116,0.0,0.0,79,0.00,,,0.00,Wunderground v.1.15,2013-03-14 03:51:00,
2013-03-13 23:53:00,48.2,42.0,30.19,ESE,116,0.0,0.0,79,0.00,,,0.00,Wunderground v.1.15,2013-03-14 03:53:00,
2013-03-13 23:55:00,48.2,42.3,30.18,ESE,116,0.0,0.0,80,0.00,,,0.00,Wunderground v.1.15,2013-03-14 03:55:00,
2013-03-13 23:56:00,48.2,42.3,30.18,ESE,116,0.0,0.0,80,0.00,,,0.00,Wunderground v.1.15,2013-03-14 03:56:00,
2013-03-13 23:58:00,48.2,42.3,30.18,ESE,116,0.0,0.0,80,0.00,,,0.00,Wunderground v.1.15,2013-03-14 03:58:00,